Wetterdaten: Sonntag, 24.03.2019
Datum Zeit Temp. Aussen Temp. o. S. +5cm Feuchte Auss Luftdruck Regen Sonnenschein Regendauer Solar Windben Empfang
24.03.2019 00:00 9,1 C 8,9 C 8,3 C 90 % 1027,6 hPa 0,0 l/m 0 min 0 min 0 W/m 6,4 km/h (2 Bft) 95,74 %
24.03.2019 00:02 9,1 C 8,3 C 8,3 C 90 % 1027,4 hPa 0,0 l/m 0 min 0 min 0 W/m 6,4 km/h (2 Bft) 95,12 %
24.03.2019 00:04 9,1 C 8,3 C 8,3 C 90 % 1027,5 hPa 0,0 l/m 0 min 0 min 0 W/m 6,4 km/h (2 Bft) 97,87 %
24.03.2019 00:10 9,1 C 8,3 C 8,3 C 90 % 1027,5 hPa 0,0 l/m 0 min 0 min 0 W/m 6,4 km/h (2 Bft) 96,45 %
24.03.2019 00:12 9,1 C 8,3 C 8,3 C 90 % 1027,5 hPa 0,0 l/m 0 min 0 min 0 W/m 6,4 km/h (2 Bft) 95,74 %
24.03.2019 00:14 9,1 C 8,3 C 8,3 C 90 % 1027,4 hPa 0,0 l/m 0 min 0 min 0 W/m 12,9 km/h (3 Bft) 93,48 %
24.03.2019 00:16 9,1 C 8,3 C 8,3 C 90 % 1027,4 hPa 0,0 l/m 0 min 0 min 0 W/m 6,4 km/h (2 Bft) 95,74 %
24.03.2019 00:18 9,1 C 8,3 C 8,3 C 90 % 1027,5 hPa 0,0 l/m 0 min 0 min 0 W/m 3,2 km/h (1 Bft) 97,87 %
24.03.2019 00:20 9,1 C 8,3 C 8,3 C 90 % 1027,4 hPa 0,0 l/m 0 min 0 min 0 W/m 6,4 km/h (2 Bft) 97,87 %
24.03.2019 00:22 9,1 C 8,3 C 8,3 C 89 % 1027,4 hPa 0,0 l/m 0 min 0 min 0 W/m 9,7 km/h (2 Bft) 97,87 %
24.03.2019 00:24 9,1 C 8,3 C 7,8 C 89 % 1027,4 hPa 0,0 l/m 0 min 0 min 0 W/m 9,7 km/h (2 Bft) 97,83 %
24.03.2019 00:26 9,1 C 8,3 C 7,8 C 89 % 1027,3 hPa 0,0 l/m 0 min 0 min 0 W/m 6,4 km/h (2 Bft) 95,74 %
24.03.2019 00:28 9,1 C 8,3 C 7,8 C 89 % 1027,4 hPa 0,0 l/m 0 min 0 min 0 W/m 12,9 km/h (3 Bft) 97,87 %
24.03.2019 00:30 9,1 C 8,3 C 7,8 C 89 % 1027,4 hPa 0,0 l/m 0 min 0 min 0 W/m 6,4 km/h (2 Bft) 97,87 %
24.03.2019 00:32 9,1 C 8,3 C 7,8 C 89 % 1027,4 hPa 0,0 l/m 0 min 0 min 0 W/m 6,4 km/h (2 Bft) 97,87 %
24.03.2019 00:34 9,1 C 8,3 C 7,8 C 89 % 1027,3 hPa 0,0 l/m 0 min 0 min 0 W/m 12,9 km/h (3 Bft) 97,87 %
24.03.2019 00:36 9,1 C 8,3 C 7,8 C 89 % 1027,3 hPa 0,0 l/m 0 min 0 min 0 W/m 9,7 km/h (2 Bft) 95,65 %
24.03.2019 00:38 9,0 C 8,3 C 7,8 C 89 % 1027,4 hPa 0,0 l/m 0 min 0 min 0 W/m 16,1 km/h (3 Bft) 97,87 %
24.03.2019 00:40 9,1 C 8,3 C 7,8 C 89 % 1027,4 hPa 0,0 l/m 0 min 0 min 0 W/m 12,9 km/h (3 Bft) 95,74 %
24.03.2019 00:42 9,0 C 8,3 C 7,8 C 89 % 1027,4 hPa 0,0 l/m 0 min 0 min 0 W/m 12,9 km/h (3 Bft) 100,00 %
24.03.2019 00:44 9,0 C 8,3 C 7,8 C 89 % 1027,4 hPa 0,0 l/m 0 min 0 min 0 W/m 3,2 km/h (1 Bft) 95,74 %
24.03.2019 00:46 9,0 C 8,3 C 7,8 C 89 % 1027,3 hPa 0,0 l/m 0 min 0 min 0 W/m 6,4 km/h (2 Bft) 95,74 %
24.03.2019 00:48 9,0 C 8,3 C 7,8 C 88 % 1027,3 hPa 0,0 l/m 0 min 0 min 0 W/m 9,7 km/h (2 Bft) 95,65 %
24.03.2019 00:50 9,0 C 8,3 C 7,8 C 88 % 1027,3 hPa 0,0 l/m 0 min 0 min 0 W/m 6,4 km/h (2 Bft) 95,74 %
24.03.2019 00:52 9,0 C 8,3 C 7,8 C 88 % 1027,3 hPa 0,0 l/m 0 min 0 min 0 W/m 12,9 km/h (3 Bft) 95,74 %
24.03.2019 00:54 9,0 C 8,3 C 7,8 C 88 % 1027,3 hPa 0,0 l/m 0 min 0 min 0 W/m 9,7 km/h (2 Bft) 95,74 %
24.03.2019 00:56 9,0 C 8,3 C 7,8 C 88 % 1027,3 hPa 0,0 l/m 0 min 0 min 0 W/m 6,4 km/h (2 Bft) 95,74 %
24.03.2019 00:58 9,0 C 8,3 C 7,8 C 88 % 1027,3 hPa 0,0 l/m 0 min 0 min 0 W/m 6,4 km/h (2 Bft) 91,49 %
24.03.2019 01:00 9,0 C 8,3 C 7,8 C 88 % 1027,4 hPa 0,0 l/m 0 min 0 min 0 W/m 6,4 km/h (2 Bft) 95,65 %
24.03.2019 01:02 8,9 C 8,3 C 7,8 C 88 % 1027,3 hPa 0,0 l/m 0 min 0 min 0 W/m 6,4 km/h (2 Bft) 97,87 %
24.03.2019 01:04 8,9 C 8,3 C 7,8 C 88 % 1027,3 hPa 0,0 l/m 0 min 0 min 0 W/m 6,4 km/h (2 Bft) 97,87 %
24.03.2019 01:06 8,9 C 8,3 C 7,8 C 88 % 1027,3 hPa 0,0 l/m 0 min 0 min 0 W/m 12,9 km/h (3 Bft) 97,87 %
24.03.2019 01:08 8,9 C 8,3 C 7,8 C 88 % 1027,2 hPa 0,0 l/m 0 min 0 min 0 W/m 9,7 km/h (2 Bft) 97,87 %
24.03.2019 01:10 8,9 C 7,8 C 7,8 C 88 % 1027,2 hPa 0,0 l/m 0 min 0 min 0 W/m 3,2 km/h (1 Bft) 97,87 %
24.03.2019 01:12 8,9 C 7,8 C 7,8 C 88 % 1027,3 hPa 0,0 l/m 0 min 0 min 0 W/m 6,4 km/h (2 Bft) 95,65 %
24.03.2019 01:14 8,8 C 7,8 C 7,8 C 88 % 1027,2 hPa 0,0 l/m 0 min 0 min 0 W/m 12,9 km/h (3 Bft) 97,87 %
24.03.2019 01:16 8,8 C 7,8 C 7,8 C 88 % 1027,3 hPa 0,0 l/m 0 min 0 min 0 W/m 12,9 km/h (3 Bft) 93,62 %
24.03.2019 01:18 8,8 C 7,8 C 7,8 C 88 % 1027,3 hPa 0,0 l/m 0 min 0 min 0 W/m 6,4 km/h (2 Bft) 97,87 %
24.03.2019 01:20 8,8 C 7,8 C 7,8 C 88 % 1027,3 hPa 0,0 l/m 0 min 0 min 0 W/m 6,4 km/h (2 Bft) 97,87 %
24.03.2019 01:22 8,8 C 7,8 C 7,8 C 88 % 1027,3 hPa 0,0 l/m 0 min 0 min 0 W/m 6,4 km/h (2 Bft) 97,83 %
24.03.2019 01:24 8,8 C 7,8 C 7,8 C 88 % 1027,2 hPa 0,0 l/m 0 min 0 min 0 W/m 9,7 km/h (2 Bft) 97,87 %
24.03.2019 01:26 8,7 C 7,8 C 7,8 C 88 % 1027,2 hPa 0,0 l/m 0 min 0 min 0 W/m 9,7 km/h (2 Bft) 97,87 %
24.03.2019 01:28 8,7 C 7,8 C 7,2 C 88 % 1027,2 hPa 0,0 l/m 0 min 0 min 0 W/m 6,4 km/h (2 Bft) 97,87 %
24.03.2019 01:30 8,7 C 7,8 C 7,2 C 88 % 1027,2 hPa 0,0 l/m 0 min 0 min 0 W/m 9,7 km/h (2 Bft) 100,00 %
24.03.2019 01:32 8,7 C 7,8 C 7,2 C 88 % 1027,2 hPa 0,0 l/m 0 min 0 min 0 W/m 9,7 km/h (2 Bft) 97,87 %
24.03.2019 01:34 8,7 C 7,8 C 7,2 C 88 % 1027,2 hPa 0,0 l/m 0 min 0 min 0 W/m 6,4 km/h (2 Bft) 100,00 %
24.03.2019 01:36 8,7 C 7,8 C 7,2 C 88 % 1027,2 hPa 0,0 l/m 0 min 0 min 0 W/m 6,4 km/h (2 Bft) 97,87 %
24.03.2019 01:38 8,6 C 7,8 C 7,2 C 88 % 1027,2 hPa 0,0 l/m 0 min 0 min 0 W/m 6,4 km/h (2 Bft) 100,00 %
24.03.2019 01:40 8,6 C 7,8 C 7,2 C 88 % 1027,1 hPa 0,0 l/m 0 min 0 min 0 W/m 6,4 km/h (2 Bft) 100,00 %
24.03.2019 01:42 8,6 C 7,8 C 7,2 C 88 % 1027,0 hPa 0,0 l/m 0 min 0 min 0 W/m 9,7 km/h (2 Bft) 100,00 %
24.03.2019 01:44 8,6 C 7,8 C 7,2 C 88 % 1027,0 hPa 0,0 l/m 0 min 0 min 0 W/m 12,9 km/h (3 Bft) 97,87 %
24.03.2019 01:46 8,6 C 7,8 C 7,2 C 88 % 1027,0 hPa 0,0 l/m 0 min 0 min 0 W/m 9,7 km/h (2 Bft) 97,83 %
24.03.2019 01:48 8,6 C 7,8 C 7,2 C 89 % 1027,0 hPa 0,0 l/m 0 min 0 min 0 W/m 9,7 km/h (2 Bft) 100,00 %
24.03.2019 01:50 8,5 C 7,8 C 7,2 C 89 % 1027,0 hPa 0,0 l/m 0 min 0 min 0 W/m 6,4 km/h (2 Bft) 95,74 %
24.03.2019 01:52 8,5 C 7,8 C 7,2 C 89 % 1027,0 hPa 0,0 l/m 0 min 0 min 0 W/m 9,7 km/h (2 Bft) 97,87 %
24.03.2019 01:54 8,5 C 7,8 C 7,2 C 89 % 1027,0 hPa 0,0 l/m 0 min 0 min 0 W/m 6,4 km/h (2 Bft) 100,00 %
24.03.2019 01:56 8,4 C 7,8 C 7,2 C 89 % 1027,0 hPa 0,0 l/m 0 min 0 min 0 W/m 9,7 km/h (2 Bft) 100,00 %
24.03.2019 01:58 8,4 C 7,8 C 7,2 C 89 % 1027,0 hPa 0,0 l/m 0 min 0 min 0 W/m 6,4 km/h (2 Bft) 97,83 %
24.03.2019 02:00 8,4 C 7,2 C 7,2 C 89 % 1027,0 hPa 0,0 l/m 0 min 0 min 0 W/m 3,2 km/h (1 Bft) 95,74 %
24.03.2019 02:02 8,4 C 7,2 C 7,2 C 89 % 1027,0 hPa 0,0 l/m 0 min 0 min 0 W/m 3,2 km/h (1 Bft) 100,00 %
24.03.2019 02:04 8,4 C 7,2 C 7,2 C 89 % 1027,0 hPa 0,0 l/m 0 min 0 min 0 W/m 9,7 km/h (2 Bft) 100,00 %
24.03.2019 02:06 8,4 C 7,2 C 7,2 C 89 % 1026,9 hPa 0,0 l/m 0 min 0 min 0 W/m 6,4 km/h (2 Bft) 97,87 %
24.03.2019 02:08 8,4 C 7,2 C 7,2 C 89 % 1026,9 hPa 0,0 l/m 0 min 0 min 0 W/m 9,7 km/h (2 Bft) 100,00 %
24.03.2019 02:10 8,3 C 7,2 C 7,2 C 89 % 1026,9 hPa 0,0 l/m 0 min 0 min 0 W/m 6,4 km/h (2 Bft) 100,00 %
24.03.2019 02:12 8,3 C 7,8 C 7,2 C 89 % 1026,9 hPa 0,0 l/m 0 min 0 min 0 W/m 9,7 km/h (2 Bft) 100,00 %
24.03.2019 02:14 8,3 C 7,2 C 7,2 C 89 % 1026,9 hPa 0,0 l/m 0 min 0 min 0 W/m 12,9 km/h (3 Bft) 100,00 %
24.03.2019 02:16 8,3 C 7,2 C 7,2 C 89 % 1026,9 hPa 0,0 l/m 0 min 0 min 0 W/m 6,4 km/h (2 Bft) 95,74 %
24.03.2019 02:18 8,3 C 7,2 C 7,2 C 89 % 1026,9 hPa 0,0 l/m 0 min 0 min 0 W/m 6,4 km/h (2 Bft) 100,00 %
24.03.2019 02:20 8,2 C 7,2 C 7,2 C 89 % 1026,9 hPa 0,0 l/m 0 min 0 min 0 W/m 12,9 km/h (3 Bft) 100,00 %
24.03.2019 02:22 8,2 C 7,2 C 7,2 C 89 % 1026,9 hPa 0,0 l/m 0 min 0 min 0 W/m 9,7 km/h (2 Bft) 100,00 %
24.03.2019 02:24 8,2 C 7,2 C 7,2 C 89 % 1026,8 hPa 0,0 l/m 0 min 0 min 0 W/m 6,4 km/h (2 Bft) 100,00 %
24.03.2019 02:26 8,2 C 7,2 C 7,2 C 89 % 1026,9 hPa 0,0 l/m 0 min 0 min 0 W/m 12,9 km/h (3 Bft) 100,00 %
24.03.2019 02:28 8,2 C 7,2 C 7,2 C 89 % 1026,8 hPa 0,0 l/m 0 min 0 min 0 W/m 9,7 km/h (2 Bft) 100,00 %
24.03.2019 02:30 8,2 C 7,2 C 7,2 C 89 % 1027,0 hPa 0,0 l/m 0 min 0 min 0 W/m 6,4 km/h (2 Bft) 100,00 %
24.03.2019 02:32 8,2 C 7,2 C 7,2 C 89 % 1026,9 hPa 0,0 l/m 0 min 0 min 0 W/m 9,7 km/h (2 Bft) 97,87 %
24.03.2019 02:34 8,2 C 7,2 C 7,2 C 89 % 1026,9 hPa 0,0 l/m 0 min 0 min 0 W/m 6,4 km/h (2 Bft) 100,00 %
24.03.2019 02:36 8,1 C 7,2 C 7,2 C 89 % 1026,9 hPa 0,0 l/m 0 min 0 min 0 W/m 6,4 km/h (2 Bft) 100,00 %
24.03.2019 02:38 8,1 C 7,2 C 7,2 C 89 % 1026,9 hPa 0,0 l/m 0 min 0 min 0 W/m 9,7 km/h (2 Bft) 100,00 %
24.03.2019 02:40 8,1 C 7,2 C 7,2 C 89 % 1026,8 hPa 0,0 l/m 0 min 0 min 0 W/m 9,7 km/h (2 Bft) 100,00 %
24.03.2019 02:42 8,1 C 7,2 C 7,2 C 89 % 1026,7 hPa 0,0 l/m 0 min 0 min 0 W/m 6,4 km/h (2 Bft) 100,00 %
24.03.2019 02:44 8,1 C 7,2 C 7,2 C 89 % 1026,7 hPa 0,0 l/m 0 min 0 min 0 W/m 9,7 km/h (2 Bft) 97,87 %
24.03.2019 02:46 8,1 C 7,2 C 7,2 C 89 % 1026,7 hPa 0,0 l/m 0 min 0 min 0 W/m 12,9 km/h (3 Bft) 97,83 %
24.03.2019 02:48 8,1 C 7,2 C 7,2 C 89 % 1026,8 hPa 0,0 l/m 0 min 0 min 0 W/m 6,4 km/h (2 Bft) 100,00 %
24.03.2019 02:50 8,0 C 7,2 C 6,7 C 89 % 1026,8 hPa 0,0 l/m 0 min 0 min 0 W/m 9,7 km/h (2 Bft) 100,00 %
24.03.2019 02:52 8,0 C 7,2 C 6,7 C 89 % 1026,7 hPa 0,0 l/m 0 min 0 min 0 W/m 9,7 km/h (2 Bft) 97,87 %
24.03.2019 02:54 8,0 C 7,2 C 6,7 C 89 % 1026,8 hPa 0,0 l/m 0 min 0 min 0 W/m 9,7 km/h (2 Bft) 91,49 %
24.03.2019 02:56 8,0 C 7,2 C 6,7 C 89 % 1026,8 hPa 0,0 l/m 0 min 0 min 0 W/m 6,4 km/h (2 Bft) 97,83 %
24.03.2019 02:58 7,9 C 7,2 C 6,7 C 89 % 1026,8 hPa 0,0 l/m 0 min 0 min 0 W/m 6,4 km/h (2 Bft) 95,74 %
24.03.2019 03:00 7,9 C 7,2 C 6,7 C 89 % 1026,7 hPa 0,0 l/m 0 min 0 min 0 W/m 6,4 km/h (2 Bft) 95,74 %
24.03.2019 03:02 7,9 C 7,2 C 6,7 C 89 % 1026,8 hPa 0,0 l/m 0 min 0 min 0 W/m 9,7 km/h (2 Bft) 97,87 %
24.03.2019 03:04 7,9 C 7,2 C 6,7 C 89 % 1026,8 hPa 0,0 l/m 0 min 0 min 0 W/m 9,7 km/h (2 Bft) 95,74 %
24.03.2019 03:06 7,9 C 7,2 C 6,7 C 89 % 1026,7 hPa 0,0 l/m 0 min 0 min 0 W/m 9,7 km/h (2 Bft) 95,74 %
24.03.2019 03:08 7,8 C 7,2 C 6,7 C 89 % 1026,8 hPa 0,0 l/m 0 min 0 min 0 W/m 9,7 km/h (2 Bft) 95,65 %
24.03.2019 03:10 7,8 C 7,2 C 6,7 C 89 % 1026,7 hPa 0,0 l/m 0 min 0 min 0 W/m 6,4 km/h (2 Bft) 95,74 %
24.03.2019 03:12 7,8 C 7,2 C 6,7 C 89 % 1026,7 hPa 0,0 l/m 0 min 0 min 0 W/m 6,4 km/h (2 Bft) 95,92 %
24.03.2019 03:14 7,8 C 6,7 C 6,7 C 89 % 1026,7 hPa 0,0 l/m 0 min 0 min 0 W/m 12,9 km/h (3 Bft) 95,65 %
24.03.2019 03:16 7,8 C 6,7 C 6,7 C 89 % 1026,6 hPa 0,0 l/m 0 min 0 min 0 W/m 12,9 km/h (3 Bft) 91,49 %
24.03.2019 03:18 7,7 C 6,7 C 6,7 C 89 % 1026,7 hPa 0,0 l/m 0 min 0 min 0 W/m 9,7 km/h (2 Bft) 95,74 %
24.03.2019 03:20 7,7 C 6,7 C 6,7 C 89 % 1026,6 hPa 0,0 l/m 0 min 0 min 0 W/m 6,4 km/h (2 Bft) 95,74 %
24.03.2019 03:22 7,7 C 6,7 C 6,7 C 89 % 1026,7 hPa 0,0 l/m 0 min 0 min 0 W/m 16,1 km/h (3 Bft) 95,74 %
24.03.2019 03:24 7,7 C 6,7 C 6,7 C 89 % 1026,7 hPa 0,0 l/m 0 min 0 min 0 W/m 6,4 km/h (2 Bft) 91,30 %
24.03.2019 03:26 7,7 C 6,7 C 6,7 C 89 % 1026,7 hPa 0,0 l/m 0 min 0 min 0 W/m 6,4 km/h (2 Bft) 95,74 %
24.03.2019 03:28 7,7 C 6,7 C 6,7 C 89 % 1026,7 hPa 0,0 l/m 0 min 0 min 0 W/m 3,2 km/h (1 Bft) 95,74 %
24.03.2019 03:30 7,7 C 6,7 C 6,7 C 89 % 1026,7 hPa 0,0 l/m 0 min 0 min 0 W/m 6,4 km/h (2 Bft) 97,87 %
24.03.2019 03:32 7,6 C 6,7 C 6,7 C 89 % 1026,6 hPa 0,0 l/m 0 min 0 min 0 W/m 6,4 km/h (2 Bft) 93,62 %
24.03.2019 03:34 7,6 C 6,7 C 6,7 C 89 % 1026,6 hPa 0,0 l/m 0 min 0 min 0 W/m 9,7 km/h (2 Bft) 91,49 %
24.03.2019 03:36 7,6 C 6,7 C 6,7 C 89 % 1026,6 hPa 0,0 l/m 0 min 0 min 0 W/m 6,4 km/h (2 Bft) 93,48 %
24.03.2019 03:38 7,6 C 6,7 C 6,7 C 89 % 1026,6 hPa 0,0 l/m 0 min 0 min 0 W/m 3,2 km/h (1 Bft) 93,62 %
24.03.2019 03:40 7,6 C 6,7 C 6,7 C 89 % 1026,5 hPa 0,0 l/m 0 min 0 min 0 W/m 9,7 km/h (2 Bft) 93,62 %
24.03.2019 03:42 7,6 C 6,7 C 6,7 C 89 % 1026,5 hPa 0,0 l/m 0 min 0 min 0 W/m 6,4 km/h (2 Bft) 93,62 %
24.03.2019 03:44 7,6 C 6,7 C 6,7 C 89 % 1026,4 hPa 0,0 l/m 0 min 0 min 0 W/m 6,4 km/h (2 Bft) 95,74 %
24.03.2019 03:46 7,5 C 6,7 C 6,7 C 89 % 1026,4 hPa 0,0 l/m 0 min 0 min 0 W/m 6,4 km/h (2 Bft) 97,87 %
24.03.2019 03:48 7,5 C 6,7 C 6,7 C 89 % 1026,4 hPa 0,0 l/m 0 min 0 min 0 W/m 6,4 km/h (2 Bft) 93,48 %
24.03.2019 03:50 7,5 C 6,7 C 6,7 C 89 % 1026,5 hPa 0,0 l/m 0 min 0 min 0 W/m 6,4 km/h (2 Bft) 95,74 %
24.03.2019 03:52 7,4 C 6,7 C 6,1 C 89 % 1026,5 hPa 0,0 l/m 0 min 0 min 0 W/m 9,7 km/h (2 Bft) 93,62 %
24.03.2019 03:54 7,4 C 6,7 C 6,1 C 89 % 1026,4 hPa 0,0 l/m 0 min 0 min 0 W/m 6,4 km/h (2 Bft) 95,74 %
24.03.2019 03:56 7,4 C 6,7 C 6,1 C 89 % 1026,4 hPa 0,0 l/m 0 min 0 min 0 W/m 6,4 km/h (2 Bft) 97,87 %
24.03.2019 03:58 7,4 C 6,7 C 6,1 C 89 % 1026,4 hPa 0,0 l/m 0 min 0 min 0 W/m 3,2 km/h (1 Bft) 95,74 %
24.03.2019 04:00 7,4 C 6,7 C 6,1 C 89 % 1026,4 hPa 0,0 l/m 0 min 0 min 0 W/m 9,7 km/h (2 Bft) 95,65 %
24.03.2019 04:05 7,4 C 6,7 C 6,1 C 89 % 1026,4 hPa 0,0 l/m 0 min 0 min 0 W/m 9,7 km/h (2 Bft) 95,65 %
24.03.2019 04:06 7,4 C 6,7 C 6,1 C 89 % 1026,4 hPa 0,0 l/m 0 min 0 min 0 W/m 3,2 km/h (1 Bft) 95,83 %
24.03.2019 04:08 7,3 C 6,7 C 6,1 C 89 % 1026,4 hPa 0,0 l/m 0 min 0 min 0 W/m 6,4 km/h (2 Bft) 94,29 %
24.03.2019 04:10 7,3 C 6,7 C 6,1 C 89 % 1026,4 hPa 0,0 l/m 0 min 0 min 0 W/m 3,2 km/h (1 Bft) 95,74 %
24.03.2019 04:12 7,3 C 6,7 C 6,1 C 89 % 1026,4 hPa 0,0 l/m 0 min 0 min 0 W/m 3,2 km/h (1 Bft) 97,87 %
24.03.2019 04:14 7,3 C 6,7 C 6,1 C 89 % 1026,4 hPa 0,0 l/m 0 min 0 min 0 W/m 6,4 km/h (2 Bft) 95,65 %
24.03.2019 04:16 7,3 C 6,7 C 6,1 C 89 % 1026,4 hPa 0,0 l/m 0 min 0 min 0 W/m 3,2 km/h (1 Bft) 97,87 %
24.03.2019 04:18 7,3 C 6,7 C 6,1 C 89 % 1026,4 hPa 0,0 l/m 0 min 0 min 0 W/m 6,4 km/h (2 Bft) 97,87 %
24.03.2019 04:20 7,3 C 6,7 C 6,1 C 89 % 1026,4 hPa 0,0 l/m 0 min 0 min 0 W/m 3,2 km/h (1 Bft) 97,87 %
24.03.2019 04:22 7,3 C 6,7 C 6,1 C 89 % 1026,4 hPa 0,0 l/m 0 min 0 min 0 W/m 0,0 km/h (0 Bft) 100,00 %
24.03.2019 04:24 7,3 C 6,7 C 6,1 C 89 % 1026,4 hPa 0,0 l/m 0 min 0 min 0 W/m 6,4 km/h (2 Bft) 100,00 %
24.03.2019 04:26 7,2 C 6,7 C 6,1 C 90 % 1026,4 hPa 0,0 l/m 0 min 0 min 0 W/m 9,7 km/h (2 Bft) 100,00 %
24.03.2019 04:28 7,2 C 6,7 C 6,1 C 90 % 1026,3 hPa 0,0 l/m 0 min 0 min 0 W/m 0,0 km/h (0 Bft) 97,87 %
24.03.2019 04:30 7,2 C 6,7 C 6,1 C 90 % 1026,3 hPa 0,0 l/m 0 min 0 min 0 W/m 0,0 km/h (0 Bft) 97,87 %
24.03.2019 04:32 7,2 C 6,7 C 6,1 C 90 % 1026,3 hPa 0,0 l/m 0 min 0 min 0 W/m 3,2 km/h (1 Bft) 100,00 %
24.03.2019 04:34 7,2 C 6,7 C 6,1 C 90 % 1026,3 hPa 0,0 l/m 0 min 0 min 0 W/m 6,4 km/h (2 Bft) 100,00 %
24.03.2019 04:36 7,2 C 6,7 C 6,1 C 90 % 1026,3 hPa 0,0 l/m 0 min 0 min 0 W/m 6,4 km/h (2 Bft) 96,55 %
24.03.2019 04:38 7,2 C 6,7 C 6,1 C 90 % 1026,2 hPa 0,0 l/m 0 min 0 min 0 W/m 0,0 km/h (0 Bft) 100,00 %
24.03.2019 04:40 7,2 C 6,7 C 6,1 C 90 % 1026,2 hPa 0,0 l/m 0 min 0 min 0 W/m 3,2 km/h (1 Bft) 100,00 %
24.03.2019 04:42 7,2 C 6,7 C 6,1 C 90 % 1026,2 hPa 0,0 l/m 0 min 0 min 0 W/m 0,0 km/h (0 Bft) 97,87 %
24.03.2019 04:44 7,2 C 6,1 C 6,1 C 90 % 1026,2 hPa 0,0 l/m 0 min 0 min 0 W/m 0,0 km/h (0 Bft) 100,00 %
24.03.2019 04:46 7,2 C 6,1 C 6,1 C 90 % 1026,1 hPa 0,0 l/m 0 min 0 min 0 W/m 3,2 km/h (1 Bft) 100,00 %
24.03.2019 04:48 7,1 C 6,1 C 6,1 C 90 % 1026,1 hPa 0,0 l/m 0 min 0 min 0 W/m 3,2 km/h (1 Bft) 100,00 %
24.03.2019 04:50 7,1 C 6,1 C 6,1 C 90 % 1026,1 hPa 0,0 l/m 0 min 0 min 0 W/m 3,2 km/h (1 Bft) 100,00 %
24.03.2019 04:52 7,1 C 6,1 C 6,1 C 90 % 1026,1 hPa 0,0 l/m 0 min 0 min 0 W/m 0,0 km/h (0 Bft) 100,00 %
24.03.2019 04:54 7,1 C 6,1 C 6,1 C 90 % 1026,2 hPa 0,0 l/m 0 min 0 min 0 W/m 0,0 km/h (0 Bft) 100,00 %
24.03.2019 04:56 7,1 C 6,1 C 6,1 C 90 % 1026,1 hPa 0,0 l/m 0 min 0 min 0 W/m 0,0 km/h (0 Bft) 100,00 %
24.03.2019 04:58 7,1 C 6,1 C 6,1 C 90 % 1026,1 hPa 0,0 l/m 0 min 0 min 0 W/m 0,0 km/h (0 Bft) 100,00 %
24.03.2019 05:00 7,1 C 6,1 C 6,1 C 90 % 1026,2 hPa 0,0 l/m 0 min 0 min 0 W/m 0,0 km/h (0 Bft) 100,00 %
24.03.2019 05:02 7,1 C 6,1 C 6,1 C 90 % 1026,2 hPa 0,0 l/m 0 min 0 min 0 W/m 0,0 km/h (0 Bft) 100,00 %
24.03.2019 05:04 7,1 C 6,1 C 6,1 C 90 % 1026,2 hPa 0,0 l/m 0 min 0 min 0 W/m 6,4 km/h (2 Bft) 97,87 %
24.03.2019 05:05 7,1 C 6,1 C 6,1 C 90 % 1026,2 hPa 0,0 l/m 0 min 0 min 0 W/m 6,4 km/h (2 Bft) 100,00 %
24.03.2019 05:10 7,0 C 6,1 C 6,1 C 90 % 1026,1 hPa 0,0 l/m 0 min 0 min 0 W/m 3,2 km/h (1 Bft) 100,00 %
24.03.2019 05:12 7,0 C 6,1 C 6,1 C 90 % 1026,2 hPa 0,0 l/m 0 min 0 min 0 W/m 0,0 km/h (0 Bft) 100,00 %
24.03.2019 05:14 7,0 C 6,1 C 6,1 C 90 % 1026,1 hPa 0,0 l/m 0 min 0 min 0 W/m 3,2 km/h (1 Bft) 97,83 %
24.03.2019 05:16 7,0 C 6,1 C 6,1 C 90 % 1026,1 hPa 0,0 l/m 0 min 0 min 0 W/m 6,4 km/h (2 Bft) 100,00 %
24.03.2019 05:18 7,0 C 6,1 C 6,1 C 90 % 1026,1 hPa 0,0 l/m 0 min 0 min 0 W/m 0,0 km/h (0 Bft) 100,00 %
24.03.2019 05:20 6,9 C 6,1 C 6,1 C 90 % 1026,0 hPa 0,0 l/m 0 min 0 min 0 W/m 0,0 km/h (0 Bft) 95,74 %
24.03.2019 05:22 6,9 C 6,1 C 6,1 C 90 % 1026,0 hPa 0,0 l/m 0 min 0 min 0 W/m 3,2 km/h (1 Bft) 94,44 %
24.03.2019 05:24 6,9 C 6,1 C 6,1 C 90 % 1026,0 hPa 0,0 l/m 0 min 0 min 0 W/m 3,2 km/h (1 Bft) 100,00 %
24.03.2019 05:26 6,9 C 6,1 C 6,1 C 90 % 1026,0 hPa 0,0 l/m 0 min 0 min 0 W/m 16,1 km/h (3 Bft) 97,92 %
24.03.2019 05:28 6,9 C 6,1 C 6,1 C 90 % 1025,9 hPa 0,0 l/m 0 min 0 min 0 W/m 9,7 km/h (2 Bft) 97,14 %
24.03.2019 05:30 6,9 C 6,1 C 6,1 C 90 % 1025,9 hPa 0,0 l/m 0 min 0 min 0 W/m 3,2 km/h (1 Bft) 98,15 %
24.03.2019 05:32 6,8 C 6,1 C 6,1 C 90 % 1025,9 hPa 0,0 l/m 0 min 0 min 0 W/m 3,2 km/h (1 Bft) 97,87 %
24.03.2019 05:34 6,8 C 6,1 C 6,1 C 89 % 1025,9 hPa 0,0 l/m 0 min 0 min 0 W/m 6,4 km/h (2 Bft) 97,87 %
24.03.2019 05:36 6,8 C 6,1 C 6,1 C 89 % 1025,8 hPa 0,0 l/m 0 min 0 min 0 W/m 6,4 km/h (2 Bft) 98,00 %
24.03.2019 05:38 6,8 C 6,1 C 5,6 C 89 % 1025,8 hPa 0,0 l/m 0 min 0 min 0 W/m 6,4 km/h (2 Bft) 97,92 %
24.03.2019 05:40 6,8 C 6,1 C 5,6 C 89 % 1025,8 hPa 0,0 l/m 0 min 0 min 0 W/m 3,2 km/h (1 Bft) 95,74 %
24.03.2019 05:42 6,8 C 6,1 C 5,6 C 89 % 1025,8 hPa 0,0 l/m 0 min 0 min 0 W/m 3,2 km/h (1 Bft) 97,87 %
24.03.2019 05:44 6,8 C 6,1 C 5,6 C 89 % 1025,8 hPa 0,0 l/m 0 min 0 min 0 W/m 9,7 km/h (2 Bft) 97,87 %
24.03.2019 05:46 6,8 C 6,1 C 5,6 C 89 % 1025,8 hPa 0,0 l/m 0 min 0 min 0 W/m 6,4 km/h (2 Bft) 100,00 %
24.03.2019 05:48 6,7 C 6,1 C 5,6 C 89 % 1025,8 hPa 0,0 l/m 0 min 0 min 0 W/m 3,2 km/h (1 Bft) 95,65 %
24.03.2019 05:50 6,7 C 6,1 C 5,6 C 89 % 1025,8 hPa 0,0 l/m 0 min 0 min 0 W/m 9,7 km/h (2 Bft) 97,87 %
24.03.2019 05:52 6,7 C 6,1 C 5,6 C 89 % 1025,9 hPa 0,0 l/m 0 min 0 min 0 W/m 3,2 km/h (1 Bft) 97,87 %
24.03.2019 05:54 6,7 C 6,1 C 5,6 C 89 % 1025,8 hPa 0,0 l/m 0 min 0 min 0 W/m 0,0 km/h (0 Bft) 97,87 %
24.03.2019 05:56 6,7 C 6,1 C 5,6 C 89 % 1025,9 hPa 0,0 l/m 0 min 0 min 0 W/m 6,4 km/h (2 Bft) 97,87 %
24.03.2019 05:58 6,7 C 6,1 C 5,6 C 89 % 1025,9 hPa 0,0 l/m 0 min 0 min 0 W/m 0,0 km/h (0 Bft) 97,87 %
24.03.2019 06:00 6,7 C 6,1 C 5,6 C 89 % 1025,9 hPa 0,0 l/m 0 min 0 min 0 W/m 3,2 km/h (1 Bft) 97,83 %
24.03.2019 06:02 6,7 C 6,1 C 5,6 C 89 % 1025,9 hPa 0,0 l/m 0 min 0 min 0 W/m 9,7 km/h (2 Bft) 97,87 %
24.03.2019 06:04 6,7 C 6,1 C 5,6 C 89 % 1025,9 hPa 0,0 l/m 0 min 0 min 0 W/m 6,4 km/h (2 Bft) 97,87 %
24.03.2019 06:08 6,7 C 6,1 C 5,6 C 89 % 1025,8 hPa 0,0 l/m 0 min 0 min 0 W/m 6,4 km/h (2 Bft) 96,81 %
24.03.2019 06:10 6,7 C 6,1 C 5,6 C 89 % 1025,8 hPa 0,0 l/m 0 min 0 min 0 W/m 3,2 km/h (1 Bft) 100,00 %
24.03.2019 06:12 6,7 C 6,1 C 5,6 C 89 % 1025,8 hPa 0,0 l/m 0 min 0 min 0 W/m 6,4 km/h (2 Bft) 97,83 %
24.03.2019 06:14 6,7 C 6,1 C 5,6 C 89 % 1025,8 hPa 0,0 l/m 0 min 0 min 0 W/m 6,4 km/h (2 Bft) 95,74 %
24.03.2019 06:16 6,7 C 6,1 C 5,6 C 89 % 1025,8 hPa 0,0 l/m 0 min 0 min 0 W/m 3,2 km/h (1 Bft) 97,87 %
24.03.2019 06:18 6,7 C 6,1 C 5,6 C 89 % 1025,7 hPa 0,0 l/m 0 min 0 min 0 W/m 3,2 km/h (1 Bft) 91,49 %
24.03.2019 06:20 6,7 C 6,1 C 5,6 C 89 % 1025,8 hPa 0,0 l/m 0 min 0 min 0 W/m 6,4 km/h (2 Bft) 97,87 %
24.03.2019 06:22 6,7 C 6,1 C 5,6 C 89 % 1025,8 hPa 0,0 l/m 0 min 0 min 0 W/m 6,4 km/h (2 Bft) 97,87 %
24.03.2019 06:24 6,6 C 6,1 C 5,6 C 89 % 1025,7 hPa 0,0 l/m 0 min 0 min 0 W/m 0,0 km/h (0 Bft) 97,83 %
24.03.2019 06:26 6,6 C 6,1 C 5,6 C 89 % 1025,7 hPa 0,0 l/m 0 min 0 min 0 W/m 6,4 km/h (2 Bft) 98,21 %
24.03.2019 06:28 6,6 C 6,1 C 5,6 C 89 % 1025,7 hPa 0,0 l/m 0 min 0 min 0 W/m 6,4 km/h (2 Bft) 95,74 %
24.03.2019 06:30 6,6 C 6,1 C 5,6 C 89 % 1025,7 hPa 0,0 l/m 0 min 0 min 0 W/m 3,2 km/h (1 Bft) 100,00 %
24.03.2019 06:32 6,6 C 6,1 C 5,6 C 89 % 1025,7 hPa 0,0 l/m 0 min 0 min 0 W/m 3,2 km/h (1 Bft) 97,87 %
24.03.2019 06:34 6,6 C 6,1 C 5,6 C 89 % 1025,7 hPa 0,0 l/m 0 min 0 min 0 W/m 6,4 km/h (2 Bft) 97,87 %
24.03.2019 06:36 6,6 C 6,1 C 5,6 C 88 % 1025,8 hPa 0,0 l/m 0 min 0 min 0 W/m 9,7 km/h (2 Bft) 95,65 %
24.03.2019 06:38 6,6 C 6,1 C 5,6 C 88 % 1025,8 hPa 0,0 l/m 0 min 0 min 0 W/m 6,4 km/h (2 Bft) 97,87 %
24.03.2019 06:40 6,6 C 6,1 C 5,6 C 88 % 1025,8 hPa 0,0 l/m 0 min 0 min 0 W/m 0,0 km/h (0 Bft) 97,87 %
24.03.2019 06:42 6,6 C 6,1 C 5,6 C 88 % 1025,8 hPa 0,0 l/m 0 min 0 min 0 W/m 6,4 km/h (2 Bft) 97,87 %
24.03.2019 06:44 6,6 C 6,1 C 5,6 C 88 % 1025,8 hPa 0,0 l/m 0 min 0 min 0 W/m 9,7 km/h (2 Bft) 95,74 %
24.03.2019 06:46 6,6 C 6,1 C 5,6 C 88 % 1025,8 hPa 0,0 l/m 0 min 0 min 2 W/m 9,7 km/h (2 Bft) 93,62 %
24.03.2019 06:48 6,6 C 6,1 C 5,6 C 88 % 1025,9 hPa 0,0 l/m 0 min 0 min 5 W/m 9,7 km/h (2 Bft) 95,74 %
24.03.2019 06:50 6,5 C 6,1 C 5,6 C 88 % 1025,8 hPa 0,0 l/m 0 min 0 min 5 W/m 9,7 km/h (2 Bft) 95,65 %
24.03.2019 06:52 6,5 C 6,1 C 5,6 C 88 % 1025,9 hPa 0,0 l/m 0 min 0 min 6 W/m 6,4 km/h (2 Bft) 93,62 %
24.03.2019 06:54 6,5 C 6,1 C 5,6 C 88 % 1025,9 hPa 0,0 l/m 0 min 0 min 7 W/m 19,3 km/h (3 Bft) 95,74 %
24.03.2019 06:56 6,5 C 6,1 C 5,6 C 88 % 1025,9 hPa 0,0 l/m 0 min 0 min 8 W/m 9,7 km/h (2 Bft) 93,62 %
24.03.2019 06:58 6,5 C 6,1 C 5,6 C 88 % 1025,8 hPa 0,0 l/m 0 min 0 min 9 W/m 3,2 km/h (1 Bft) 95,74 %
24.03.2019 07:00 6,5 C 6,1 C 5,6 C 88 % 1025,8 hPa 0,0 l/m 0 min 0 min 11 W/m 6,4 km/h (2 Bft) 95,65 %
24.03.2019 07:02 6,5 C 6,1 C 5,6 C 88 % 1025,8 hPa 0,0 l/m 0 min 0 min 11 W/m 3,2 km/h (1 Bft) 91,49 %
24.03.2019 07:04 6,5 C 6,1 C 5,6 C 88 % 1025,8 hPa 0,0 l/m 0 min 0 min 12 W/m 6,4 km/h (2 Bft) 93,62 %
24.03.2019 07:06 6,4 C 6,1 C 5,6 C 88 % 1025,9 hPa 0,0 l/m 0 min 0 min 12 W/m 9,7 km/h (2 Bft) 97,87 %
24.03.2019 07:08 6,4 C 6,1 C 5,6 C 88 % 1026,0 hPa 0,0 l/m 0 min 0 min 14 W/m 6,4 km/h (2 Bft) 95,74 %
24.03.2019 07:10 6,4 C 6,1 C 5,6 C 88 % 1025,9 hPa 0,0 l/m 0 min 0 min 16 W/m 3,2 km/h (1 Bft) 95,74 %
24.03.2019 07:12 6,4 C 6,1 C 5,6 C 88 % 1025,9 hPa 0,0 l/m 0 min 0 min 17 W/m 9,7 km/h (2 Bft) 97,83 %
24.03.2019 07:14 6,4 C 6,1 C 5,6 C 88 % 1025,9 hPa 0,0 l/m 0 min 0 min 18 W/m 6,4 km/h (2 Bft) 89,36 %
24.03.2019 07:16 6,4 C 6,1 C 5,6 C 88 % 1025,9 hPa 0,0 l/m 0 min 0 min 19 W/m 6,4 km/h (2 Bft) 95,74 %
24.03.2019 07:18 6,4 C 6,1 C 5,6 C 88 % 1025,8 hPa 0,0 l/m 0 min 0 min 21 W/m 3,2 km/h (1 Bft) 95,92 %
24.03.2019 07:20 6,4 C 6,1 C 5,6 C 88 % 1025,8 hPa 0,0 l/m 0 min 0 min 24 W/m 6,4 km/h (2 Bft) 97,87 %
24.03.2019 07:22 6,4 C 6,1 C 5,6 C 88 % 1025,8 hPa 0,0 l/m 0 min 0 min 26 W/m 6,4 km/h (2 Bft) 97,87 %
24.03.2019 07:24 6,4 C 6,1 C 5,6 C 88 % 1025,8 hPa 0,0 l/m 0 min 0 min 28 W/m 3,2 km/h (1 Bft) 95,65 %
24.03.2019 07:26 6,4 C 6,1 C 5,6 C 88 % 1025,8 hPa 0,0 l/m 0 min 0 min 31 W/m 6,4 km/h (2 Bft) 97,87 %
24.03.2019 07:28 6,4 C 6,1 C 5,6 C 88 % 1025,8 hPa 0,0 l/m 0 min 0 min 32 W/m 6,4 km/h (2 Bft) 97,87 %
24.03.2019 07:30 6,4 C 6,1 C 5,6 C 88 % 1025,8 hPa 0,0 l/m 0 min 0 min 35 W/m 6,4 km/h (2 Bft) 97,87 %
24.03.2019 07:32 6,4 C 6,1 C 5,6 C 88 % 1025,8 hPa 0,0 l/m 0 min 0 min 38 W/m 9,7 km/h (2 Bft) 97,87 %
24.03.2019 07:34 6,4 C 6,1 C 5,6 C 88 % 1025,7 hPa 0,0 l/m 0 min 0 min 40 W/m 6,4 km/h (2 Bft) 97,87 %
24.03.2019 07:36 6,4 C 6,1 C 5,6 C 88 % 1025,7 hPa 0,0 l/m 0 min 0 min 44 W/m 6,4 km/h (2 Bft) 97,83 %
24.03.2019 07:38 6,4 C 6,1 C 5,6 C 88 % 1025,8 hPa 0,0 l/m 0 min 0 min 47 W/m 6,4 km/h (2 Bft) 97,87 %
24.03.2019 07:40 6,4 C 6,1 C 5,6 C 88 % 1025,7 hPa 0,0 l/m 0 min 0 min 49 W/m 16,1 km/h (3 Bft) 97,87 %
24.03.2019 07:42 6,4 C 6,1 C 5,6 C 88 % 1025,8 hPa 0,0 l/m 0 min 0 min 50 W/m 6,4 km/h (2 Bft) 100,00 %
24.03.2019 07:44 6,4 C 6,1 C 5,6 C 88 % 1025,8 hPa 0,0 l/m 0 min 0 min 53 W/m 6,4 km/h (2 Bft) 97,87 %
24.03.2019 07:46 6,4 C 6,1 C 5,6 C 88 % 1025,8 hPa 0,0 l/m 0 min 0 min 57 W/m 6,4 km/h (2 Bft) 100,00 %
24.03.2019 07:48 6,4 C 6,1 C 5,6 C 88 % 1025,8 hPa 0,0 l/m 0 min 0 min 62 W/m 6,4 km/h (2 Bft) 97,87 %
24.03.2019 07:50 6,4 C 6,1 C 6,1 C 88 % 1025,8 hPa 0,0 l/m 0 min 0 min 65 W/m 6,4 km/h (2 Bft) 100,00 %
24.03.2019 07:52 6,4 C 6,1 C 6,1 C 88 % 1025,8 hPa 0,0 l/m 0 min 0 min 67 W/m 6,4 km/h (2 Bft) 100,00 %
24.03.2019 07:54 6,4 C 6,7 C 6,1 C 88 % 1025,8 hPa 0,0 l/m 0 min 0 min 69 W/m 6,4 km/h (2 Bft) 97,87 %
24.03.2019 07:56 6,4 C 6,7 C 6,1 C 88 % 1025,8 hPa 0,0 l/m 0 min 0 min 67 W/m 6,4 km/h (2 Bft) 97,87 %
24.03.2019 07:58 6,4 C 6,7 C 6,1 C 88 % 1025,8 hPa 0,0 l/m 0 min 0 min 62 W/m 6,4 km/h (2 Bft) 100,00 %
24.03.2019 08:00 6,4 C 6,7 C 6,1 C 88 % 1025,7 hPa 0,0 l/m 0 min 0 min 63 W/m 6,4 km/h (2 Bft) 100,00 %
24.03.2019 08:02 6,4 C 6,7 C 6,1 C 88 % 1025,7 hPa 0,0 l/m 0 min 0 min 66 W/m 6,4 km/h (2 Bft) 97,87 %
24.03.2019 08:04 6,4 C 6,7 C 6,1 C 88 % 1025,7 hPa 0,0 l/m 0 min 0 min 68 W/m 6,4 km/h (2 Bft) 97,87 %
24.03.2019 08:06 6,4 C 6,7 C 6,1 C 88 % 1025,7 hPa 0,0 l/m 0 min 0 min 74 W/m 6,4 km/h (2 Bft) 97,87 %
24.03.2019 08:08 6,4 C 6,7 C 6,1 C 88 % 1025,6 hPa 0,0 l/m 0 min 0 min 76 W/m 6,4 km/h (2 Bft) 100,00 %
24.03.2019 08:10 6,4 C 6,7 C 6,1 C 88 % 1025,7 hPa 0,0 l/m 0 min 0 min 75 W/m 3,2 km/h (1 Bft) 100,00 %
24.03.2019 08:12 6,4 C 6,7 C 6,1 C 88 % 1025,6 hPa 0,0 l/m 0 min 0 min 69 W/m 3,2 km/h (1 Bft) 97,87 %
24.03.2019 08:14 6,4 C 6,7 C 6,1 C 88 % 1025,6 hPa 0,0 l/m 0 min 0 min 62 W/m 3,2 km/h (1 Bft) 97,87 %
24.03.2019 08:16 6,4 C 6,7 C 6,1 C 88 % 1025,6 hPa 0,0 l/m 0 min 0 min 57 W/m 6,4 km/h (2 Bft) 93,62 %
24.03.2019 08:18 6,4 C 6,7 C 5,6 C 88 % 1025,6 hPa 0,0 l/m 0 min 0 min 55 W/m 0,0 km/h (0 Bft) 97,87 %
24.03.2019 08:20 6,3 C 6,7 C 5,6 C 88 % 1025,6 hPa 0,0 l/m 0 min 0 min 55 W/m 3,2 km/h (1 Bft) 97,87 %
24.03.2019 08:22 6,3 C 6,7 C 5,6 C 88 % 1025,6 hPa 0,0 l/m 0 min 0 min 56 W/m 0,0 km/h (0 Bft) 97,83 %
24.03.2019 08:24 6,3 C 6,7 C 5,6 C 88 % 1025,6 hPa 0,0 l/m 0 min 0 min 57 W/m 3,2 km/h (1 Bft) 97,87 %
24.03.2019 08:26 6,3 C 6,7 C 5,6 C 88 % 1025,6 hPa 0,0 l/m 0 min 0 min 57 W/m 3,2 km/h (1 Bft) 95,74 %
24.03.2019 08:28 6,3 C 6,7 C 5,6 C 88 % 1025,6 hPa 0,0 l/m 0 min 0 min 61 W/m 3,2 km/h (1 Bft) 97,87 %
24.03.2019 08:30 6,3 C 6,7 C 5,6 C 88 % 1025,5 hPa 0,0 l/m 0 min 0 min 64 W/m 3,2 km/h (1 Bft) 97,87 %
24.03.2019 08:32 6,3 C 6,7 C 5,6 C 88 % 1025,5 hPa 0,0 l/m 0 min 0 min 62 W/m 6,4 km/h (2 Bft) 95,74 %
24.03.2019 08:34 6,3 C 6,7 C 5,6 C 88 % 1025,5 hPa 0,0 l/m 0 min 0 min 63 W/m 3,2 km/h (1 Bft) 97,83 %
24.03.2019 08:36 6,3 C 6,7 C 5,6 C 88 % 1025,4 hPa 0,0 l/m 0 min 0 min 63 W/m 3,2 km/h (1 Bft) 97,87 %
24.03.2019 08:38 6,3 C 6,7 C 5,6 C 88 % 1025,4 hPa 0,0 l/m 0 min 0 min 64 W/m 6,4 km/h (2 Bft) 97,87 %
24.03.2019 08:40 6,3 C 6,7 C 5,6 C 88 % 1025,4 hPa 0,0 l/m 0 min 0 min 82 W/m 6,4 km/h (2 Bft) 97,87 %
24.03.2019 08:42 6,3 C 7,2 C 6,1 C 88 % 1025,3 hPa 0,0 l/m 0 min 0 min 108 W/m 9,7 km/h (2 Bft) 97,87 %
24.03.2019 08:44 6,3 C 9,4 C 6,1 C 88 % 1025,3 hPa 0,0 l/m 0 min 0 min 135 W/m 6,4 km/h (2 Bft) 97,83 %
24.03.2019 08:46 6,4 C 10,6 C 6,1 C 88 % 1025,3 hPa 0,0 l/m 0 min 0 min 162 W/m 6,4 km/h (2 Bft) 97,87 %
24.03.2019 08:48 6,4 C 11,7 C 6,1 C 88 % 1025,3 hPa 0,0 l/m 2 min 0 min 185 W/m 9,7 km/h (2 Bft) 97,87 %
24.03.2019 08:50 6,4 C 11,7 C 6,1 C 88 % 1025,3 hPa 0,0 l/m 2 min 0 min 223 W/m 6,4 km/h (2 Bft) 97,87 %
24.03.2019 08:52 6,5 C 12,2 C 6,1 C 88 % 1025,2 hPa 0,0 l/m 2 min 0 min 254 W/m 6,4 km/h (2 Bft) 97,87 %
24.03.2019 08:54 6,6 C 12,2 C 6,7 C 88 % 1025,1 hPa 0,0 l/m 2 min 0 min 281 W/m 9,7 km/h (2 Bft) 97,87 %
24.03.2019 08:56 6,7 C 12,8 C 6,7 C 88 % 1025,2 hPa 0,0 l/m 2 min 0 min 307 W/m 9,7 km/h (2 Bft) 93,48 %
24.03.2019 08:58 6,8 C 13,9 C 6,7 C 88 % 1025,1 hPa 0,0 l/m 2 min 0 min 328 W/m 6,4 km/h (2 Bft) 93,62 %
24.03.2019 09:00 6,9 C 13,9 C 6,7 C 88 % 1025,1 hPa 0,0 l/m 2 min 0 min 344 W/m 9,7 km/h (2 Bft) 95,74 %
24.03.2019 09:02 7,1 C 14,4 C 6,7 C 88 % 1025,1 hPa 0,0 l/m 2 min 0 min 351 W/m 9,7 km/h (2 Bft) 95,74 %
24.03.2019 09:04 7,2 C 15,6 C 7,2 C 88 % 1025,1 hPa 0,0 l/m 2 min 0 min 358 W/m 6,4 km/h (2 Bft) 93,62 %
24.03.2019 09:06 7,4 C 15,0 C 8,9 C 89 % 1025,1 hPa 0,0 l/m 2 min 0 min 362 W/m 6,4 km/h (2 Bft) 95,74 %
24.03.2019 09:08 7,6 C 15,6 C 10,0 C 88 % 1025,1 hPa 0,0 l/m 2 min 0 min 370 W/m 6,4 km/h (2 Bft) 93,48 %
24.03.2019 09:10 7,7 C 16,1 C 11,7 C 88 % 1025,1 hPa 0,0 l/m 2 min 0 min 375 W/m 9,7 km/h (2 Bft) 95,74 %
24.03.2019 09:12 7,9 C 15,6 C 12,2 C 88 % 1025,1 hPa 0,0 l/m 2 min 0 min 383 W/m 6,4 km/h (2 Bft) 95,74 %
24.03.2019 09:14 8,0 C 15,6 C 12,8 C 87 % 1025,2 hPa 0,0 l/m 2 min 0 min 389 W/m 9,7 km/h (2 Bft) 93,62 %
24.03.2019 09:16 8,1 C 16,1 C 12,8 C 87 % 1025,2 hPa 0,0 l/m 2 min 0 min 396 W/m 6,4 km/h (2 Bft) 95,74 %
24.03.2019 09:18 8,2 C 15,6 C 12,8 C 86 % 1025,2 hPa 0,0 l/m 2 min 0 min 402 W/m 6,4 km/h (2 Bft) 95,74 %
24.03.2019 09:20 8,3 C 16,1 C 13,3 C 86 % 1025,2 hPa 0,0 l/m 2 min 0 min 406 W/m 9,7 km/h (2 Bft) 95,65 %
24.03.2019 09:22 8,4 C 16,7 C 13,3 C 85 % 1025,2 hPa 0,0 l/m 2 min 0 min 411 W/m 6,4 km/h (2 Bft) 93,62 %
24.03.2019 09:24 8,6 C 16,7 C 13,3 C 85 % 1025,3 hPa 0,0 l/m 2 min 0 min 418 W/m 6,4 km/h (2 Bft) 95,74 %
24.03.2019 09:26 8,7 C 15,0 C 12,8 C 84 % 1025,3 hPa 0,0 l/m 2 min 0 min 422 W/m 9,7 km/h (2 Bft) 95,74 %
24.03.2019 09:28 8,8 C 14,4 C 12,8 C 83 % 1025,3 hPa 0,0 l/m 2 min 0 min 425 W/m 9,7 km/h (2 Bft) 89,36 %
24.03.2019 09:30 8,9 C 15,6 C 13,3 C 83 % 1025,4 hPa 0,0 l/m 2 min 0 min 427 W/m 16,1 km/h (3 Bft) 95,74 %
24.03.2019 09:32 9,1 C 16,1 C 13,9 C 83 % 1025,4 hPa 0,0 l/m 2 min 0 min 433 W/m 3,2 km/h (1 Bft) 93,48 %
24.03.2019 09:34 9,2 C 17,8 C 14,4 C 83 % 1025,5 hPa 0,0 l/m 2 min 0 min 440 W/m 9,7 km/h (2 Bft) 97,87 %
24.03.2019 09:36 9,4 C 18,3 C 15,0 C 83 % 1025,5 hPa 0,0 l/m 2 min 0 min 439 W/m 12,9 km/h (3 Bft) 97,87 %
24.03.2019 09:38 9,6 C 17,2 C 14,4 C 82 % 1025,5 hPa 0,0 l/m 2 min 0 min 447 W/m 9,7 km/h (2 Bft) 97,87 %
24.03.2019 09:40 9,7 C 18,3 C 15,0 C 82 % 1025,5 hPa 0,0 l/m 2 min 0 min 461 W/m 9,7 km/h (2 Bft) 91,49 %
24.03.2019 09:42 9,8 C 18,3 C 15,0 C 81 % 1025,5 hPa 0,0 l/m 2 min 0 min 476 W/m 9,7 km/h (2 Bft) 97,87 %
24.03.2019 09:44 9,9 C 17,2 C 14,4 C 81 % 1025,6 hPa 0,0 l/m 2 min 0 min 459 W/m 9,7 km/h (2 Bft) 95,65 %
24.03.2019 09:46 10,1 C 16,7 C 13,9 C 80 % 1025,6 hPa 0,0 l/m 2 min 0 min 309 W/m 9,7 km/h (2 Bft) 95,74 %
24.03.2019 09:48 10,1 C 16,7 C 13,9 C 80 % 1025,5 hPa 0,0 l/m 2 min 0 min 377 W/m 6,4 km/h (2 Bft) 95,74 %
24.03.2019 09:50 10,2 C 16,1 C 13,3 C 79 % 1025,5 hPa 0,0 l/m 2 min 0 min 424 W/m 9,7 km/h (2 Bft) 93,62 %
24.03.2019 09:52 10,3 C 15,0 C 12,8 C 79 % 1025,5 hPa 0,0 l/m 2 min 0 min 252 W/m 12,9 km/h (3 Bft) 95,74 %
24.03.2019 09:54 10,3 C 16,7 C 13,9 C 79 % 1025,4 hPa 0,0 l/m 0 min 0 min 224 W/m 9,7 km/h (2 Bft) 95,74 %
24.03.2019 09:56 10,4 C 17,2 C 14,4 C 79 % 1025,4 hPa 0,0 l/m 2 min 0 min 486 W/m 16,1 km/h (3 Bft) 95,65 %
24.03.2019 09:58 10,5 C 17,8 C 14,4 C 78 % 1025,5 hPa 0,0 l/m 2 min 0 min 489 W/m 16,1 km/h (3 Bft) 95,74 %
24.03.2019 10:00 10,6 C 16,7 C 14,4 C 78 % 1025,5 hPa 0,0 l/m 2 min 0 min 488 W/m 22,5 km/h (4 Bft) 93,62 %
24.03.2019 10:02 10,6 C 17,2 C 14,4 C 78 % 1025,4 hPa 0,0 l/m 2 min 0 min 485 W/m 19,3 km/h (3 Bft) 95,74 %
24.03.2019 10:04 10,7 C 17,8 C 15,0 C 78 % 1025,4 hPa 0,0 l/m 2 min 0 min 492 W/m 12,9 km/h (3 Bft) 95,74 %
24.03.2019 10:06 10,7 C 18,3 C 15,6 C 78 % 1025,4 hPa 0,0 l/m 2 min 0 min 469 W/m 16,1 km/h (3 Bft) 95,65 %
24.03.2019 10:08 10,8 C 18,9 C 15,6 C 78 % 1025,4 hPa 0,0 l/m 2 min 0 min 508 W/m 12,9 km/h (3 Bft) 95,74 %
24.03.2019 10:10 10,9 C 18,9 C 16,1 C 78 % 1025,4 hPa 0,0 l/m 2 min 0 min 486 W/m 16,1 km/h (3 Bft) 95,74 %
24.03.2019 10:12 11,0 C 18,9 C 16,1 C 78 % 1025,4 hPa 0,0 l/m 2 min 0 min 494 W/m 16,1 km/h (3 Bft) 95,74 %
24.03.2019 10:14 11,1 C 19,4 C 16,1 C 77 % 1025,4 hPa 0,0 l/m 2 min 0 min 535 W/m 12,9 km/h (3 Bft) 93,62 %
24.03.2019 10:16 11,2 C 20,0 C 15,6 C 77 % 1025,4 hPa 0,0 l/m 2 min 0 min 529 W/m 12,9 km/h (3 Bft) 95,74 %
24.03.2019 10:18 11,3 C 19,4 C 14,4 C 77 % 1025,4 hPa 0,0 l/m 2 min 0 min 570 W/m 12,9 km/h (3 Bft) 95,65 %
24.03.2019 10:20 11,5 C 20,0 C 14,4 C 77 % 1025,4 hPa 0,0 l/m 2 min 0 min 549 W/m 9,7 km/h (2 Bft) 95,83 %
24.03.2019 10:22 11,6 C 18,3 C 13,3 C 76 % 1025,5 hPa 0,0 l/m 2 min 0 min 524 W/m 9,7 km/h (2 Bft) 95,74 %
24.03.2019 10:24 11,6 C 17,2 C 13,3 C 76 % 1025,6 hPa 0,0 l/m 2 min 0 min 376 W/m 12,9 km/h (3 Bft) 95,74 %
24.03.2019 10:26 11,7 C 16,1 C 12,8 C 76 % 1025,6 hPa 0,0 l/m 2 min 0 min 342 W/m 19,3 km/h (3 Bft) 95,74 %
24.03.2019 10:28 11,7 C 15,6 C 12,8 C 75 % 1025,6 hPa 0,0 l/m 2 min 0 min 320 W/m 9,7 km/h (2 Bft) 97,87 %
24.03.2019 10:30 11,7 C 15,0 C 12,8 C 75 % 1025,5 hPa 0,0 l/m 2 min 0 min 306 W/m 19,3 km/h (3 Bft) 93,48 %
24.03.2019 10:32 11,7 C 14,4 C 12,2 C 75 % 1025,5 hPa 0,0 l/m 2 min 0 min 272 W/m 16,1 km/h (3 Bft) 95,74 %
24.03.2019 10:34 11,7 C 13,9 C 12,2 C 75 % 1025,4 hPa 0,0 l/m 0 min 0 min 244 W/m 19,3 km/h (3 Bft) 95,74 %
24.03.2019 10:36 11,6 C 14,4 C 11,7 C 74 % 1025,5 hPa 0,0 l/m 0 min 0 min 265 W/m 16,1 km/h (3 Bft) 97,87 %
24.03.2019 10:38 11,6 C 16,1 C 11,7 C 75 % 1025,5 hPa 0,0 l/m 2 min 0 min 353 W/m 19,3 km/h (3 Bft) 95,74 %
24.03.2019 10:40 11,6 C 18,3 C 12,2 C 75 % 1025,5 hPa 0,0 l/m 2 min 0 min 621 W/m 12,9 km/h (3 Bft) 97,87 %
24.03.2019 10:42 11,6 C 19,4 C 12,2 C 75 % 1025,5 hPa 0,0 l/m 2 min 0 min 644 W/m 12,9 km/h (3 Bft) 97,83 %
24.03.2019 10:44 11,7 C 19,4 C 12,2 C 75 % 1025,4 hPa 0,0 l/m 2 min 0 min 468 W/m 12,9 km/h (3 Bft) 97,87 %
24.03.2019 10:46 11,7 C 19,4 C 12,2 C 75 % 1025,4 hPa 0,0 l/m 2 min 0 min 594 W/m 12,9 km/h (3 Bft) 95,74 %
24.03.2019 10:48 11,7 C 18,3 C 11,7 C 75 % 1025,5 hPa 0,0 l/m 2 min 0 min 474 W/m 9,7 km/h (2 Bft) 97,87 %
24.03.2019 10:50 11,8 C 18,9 C 11,7 C 75 % 1025,5 hPa 0,0 l/m 2 min 0 min 422 W/m 16,1 km/h (3 Bft) 97,87 %
24.03.2019 10:52 11,9 C 19,4 C 12,2 C 75 % 1025,5 hPa 0,0 l/m 2 min 0 min 612 W/m 12,9 km/h (3 Bft) 97,87 %
24.03.2019 10:54 12,0 C 20,6 C 11,7 C 74 % 1025,5 hPa 0,0 l/m 2 min 0 min 619 W/m 16,1 km/h (3 Bft) 97,83 %
24.03.2019 10:56 12,1 C 20,6 C 11,7 C 73 % 1025,5 hPa 0,0 l/m 2 min 0 min 638 W/m 19,3 km/h (3 Bft) 97,87 %
24.03.2019 10:58 12,1 C 20,0 C 11,7 C 73 % 1025,5 hPa 0,0 l/m 2 min 0 min 590 W/m 9,7 km/h (2 Bft) 95,74 %
24.03.2019 11:00 12,2 C 20,0 C 12,2 C 72 % 1025,5 hPa 0,0 l/m 2 min 0 min 561 W/m 9,7 km/h (2 Bft) 95,74 %
24.03.2019 11:02 12,3 C 20,6 C 12,2 C 72 % 1025,5 hPa 0,0 l/m 2 min 0 min 602 W/m 12,9 km/h (3 Bft) 97,87 %
24.03.2019 11:04 12,4 C 20,6 C 12,2 C 72 % 1025,5 hPa 0,0 l/m 2 min 0 min 599 W/m 12,9 km/h (3 Bft) 95,74 %
24.03.2019 11:06 12,4 C 21,1 C 12,2 C 70 % 1025,5 hPa 0,0 l/m 2 min 0 min 616 W/m 9,7 km/h (2 Bft) 95,65 %
24.03.2019 11:08 12,6 C 21,7 C 12,2 C 70 % 1025,5 hPa 0,0 l/m 2 min 0 min 616 W/m 19,3 km/h (3 Bft) 95,74 %
24.03.2019 11:10 12,7 C 21,1 C 12,2 C 71 % 1025,5 hPa 0,0 l/m 2 min 0 min 640 W/m 12,9 km/h (3 Bft) 95,74 %
24.03.2019 11:12 12,8 C 21,1 C 12,8 C 71 % 1025,5 hPa 0,0 l/m 2 min 0 min 630 W/m 12,9 km/h (3 Bft) 95,74 %
24.03.2019 11:14 12,9 C 21,7 C 12,8 C 70 % 1025,4 hPa 0,0 l/m 2 min 0 min 628 W/m 16,1 km/h (3 Bft) 95,74 %
24.03.2019 11:16 13,0 C 21,7 C 12,8 C 70 % 1025,5 hPa 0,0 l/m 2 min 0 min 634 W/m 19,3 km/h (3 Bft) 93,48 %
24.03.2019 11:18 13,1 C 20,6 C 12,8 C 70 % 1025,5 hPa 0,0 l/m 2 min 0 min 628 W/m 22,5 km/h (4 Bft) 95,74 %
24.03.2019 11:20 13,1 C 20,6 C 12,8 C 69 % 1025,4 hPa 0,0 l/m 2 min 0 min 658 W/m 19,3 km/h (3 Bft) 95,74 %
24.03.2019 11:22 13,1 C 20,0 C 12,8 C 68 % 1025,4 hPa 0,0 l/m 2 min 0 min 652 W/m 25,7 km/h (4 Bft) 93,62 %
24.03.2019 11:24 13,1 C 17,8 C 12,2 C 68 % 1025,4 hPa 0,0 l/m 2 min 0 min 573 W/m 25,7 km/h (4 Bft) 95,74 %
24.03.2019 11:26 13,0 C 17,8 C 12,2 C 66 % 1025,4 hPa 0,0 l/m 2 min 0 min 345 W/m 22,5 km/h (4 Bft) 95,74 %
24.03.2019 11:28 12,9 C 18,9 C 12,2 C 67 % 1025,3 hPa 0,0 l/m 2 min 0 min 622 W/m 19,3 km/h (3 Bft) 95,74 %
24.03.2019 11:30 12,9 C 18,9 C 12,2 C 68 % 1025,4 hPa 0,0 l/m 2 min 0 min 622 W/m 29,0 km/h (5 Bft) 95,65 %
24.03.2019 11:32 12,9 C 20,0 C 12,2 C 66 % 1025,4 hPa 0,0 l/m 2 min 0 min 704 W/m 19,3 km/h (3 Bft) 91,49 %
24.03.2019 11:34 12,9 C 20,0 C 12,8 C 66 % 1025,3 hPa 0,0 l/m 2 min 0 min 714 W/m 22,5 km/h (4 Bft) 95,74 %
24.03.2019 11:36 12,9 C 20,6 C 12,8 C 67 % 1025,3 hPa 0,0 l/m 2 min 0 min 679 W/m 22,5 km/h (4 Bft) 91,49 %
24.03.2019 11:38 12,9 C 21,1 C 12,8 C 67 % 1025,3 hPa 0,0 l/m 2 min 0 min 695 W/m 16,1 km/h (3 Bft) 95,74 %
24.03.2019 11:40 13,0 C 21,1 C 12,8 C 68 % 1025,2 hPa 0,0 l/m 2 min 0 min 665 W/m 16,1 km/h (3 Bft) 93,48 %
24.03.2019 11:42 13,0 C 21,7 C 12,2 C 67 % 1025,1 hPa 0,0 l/m 2 min 0 min 714 W/m 16,1 km/h (3 Bft) 95,74 %
24.03.2019 11:44 13,1 C 21,7 C 12,8 C 68 % 1025,1 hPa 0,0 l/m 2 min 0 min 716 W/m 19,3 km/h (3 Bft) 95,74 %
24.03.2019 11:46 13,2 C 21,7 C 12,8 C 68 % 1025,1 hPa 0,0 l/m 2 min 0 min 722 W/m 22,5 km/h (4 Bft) 95,74 %
24.03.2019 11:48 13,2 C 20,0 C 12,8 C 68 % 1025,0 hPa 0,0 l/m 2 min 0 min 727 W/m 9,7 km/h (2 Bft) 97,87 %
24.03.2019 11:50 13,2 C 21,1 C 12,8 C 68 % 1025,0 hPa 0,0 l/m 2 min 0 min 721 W/m 12,9 km/h (3 Bft) 97,87 %
24.03.2019 11:52 13,3 C 22,2 C 12,8 C 68 % 1025,0 hPa 0,0 l/m 2 min 0 min 646 W/m 12,9 km/h (3 Bft) 97,83 %
24.03.2019 11:54 13,4 C 22,2 C 12,8 C 68 % 1025,0 hPa 0,0 l/m 2 min 0 min 620 W/m 12,9 km/h (3 Bft) 97,87 %
24.03.2019 11:56 13,4 C 22,8 C 13,3 C 67 % 1025,0 hPa 0,0 l/m 2 min 0 min 660 W/m 16,1 km/h (3 Bft) 95,74 %
24.03.2019 11:58 13,5 C 22,8 C 13,3 C 67 % 1025,0 hPa 0,0 l/m 2 min 0 min 671 W/m 19,3 km/h (3 Bft) 97,87 %
24.03.2019 12:00 13,6 C 22,8 C 13,3 C 66 % 1025,0 hPa 0,0 l/m 2 min 0 min 694 W/m 9,7 km/h (2 Bft) 97,87 %
24.03.2019 12:02 13,6 C 22,8 C 13,3 C 65 % 1025,1 hPa 0,0 l/m 2 min 0 min 708 W/m 19,3 km/h (3 Bft) 95,74 %
24.03.2019 12:04 13,6 C 19,4 C 12,2 C 64 % 1025,0 hPa 0,0 l/m 2 min 0 min 677 W/m 16,1 km/h (3 Bft) 95,65 %
24.03.2019 12:08 13,6 C 20,0 C 12,8 C 64 % 1024,9 hPa 0,0 l/m 4 min 0 min 647 W/m 12,9 km/h (3 Bft) 97,87 %
24.03.2019 12:10 13,5 C 20,6 C 12,8 C 64 % 1024,9 hPa 0,0 l/m 2 min 0 min 618 W/m 12,9 km/h (3 Bft) 97,87 %
24.03.2019 12:12 13,6 C 21,7 C 12,8 C 67 % 1024,8 hPa 0,0 l/m 2 min 0 min 618 W/m 12,9 km/h (3 Bft) 97,87 %
24.03.2019 12:14 13,6 C 20,6 C 12,8 C 65 % 1024,9 hPa 0,0 l/m 2 min 0 min 630 W/m 12,9 km/h (3 Bft) 97,87 %
24.03.2019 12:16 13,6 C 21,1 C 12,8 C 65 % 1024,8 hPa 0,0 l/m 2 min 0 min 660 W/m 12,9 km/h (3 Bft) 97,83 %
24.03.2019 12:18 13,6 C 20,0 C 12,8 C 65 % 1024,8 hPa 0,0 l/m 2 min 0 min 607 W/m 12,9 km/h (3 Bft) 97,87 %
24.03.2019 12:20 13,6 C 21,1 C 13,3 C 66 % 1024,8 hPa 0,0 l/m 2 min 0 min 631 W/m 12,9 km/h (3 Bft) 97,87 %
24.03.2019 12:22 13,7 C 22,2 C 13,9 C 66 % 1024,9 hPa 0,0 l/m 2 min 0 min 752 W/m 16,1 km/h (3 Bft) 97,87 %
24.03.2019 12:24 13,8 C 22,2 C 13,9 C 65 % 1024,9 hPa 0,0 l/m 2 min 0 min 760 W/m 22,5 km/h (4 Bft) 97,87 %
24.03.2019 12:26 13,8 C 22,2 C 13,9 C 64 % 1024,9 hPa 0,0 l/m 2 min 0 min 736 W/m 19,3 km/h (3 Bft) 97,83 %
24.03.2019 12:28 13,8 C 21,7 C 14,4 C 65 % 1024,9 hPa 0,0 l/m 2 min 0 min 700 W/m 12,9 km/h (3 Bft) 97,87 %
24.03.2019 12:30 13,9 C 22,8 C 15,6 C 65 % 1024,9 hPa 0,0 l/m 2 min 0 min 754 W/m 12,9 km/h (3 Bft) 95,74 %
24.03.2019 12:32 13,9 C 23,3 C 16,7 C 66 % 1024,9 hPa 0,0 l/m 2 min 0 min 756 W/m 16,1 km/h (3 Bft) 95,74 %
24.03.2019 12:34 14,1 C 22,8 C 17,2 C 65 % 1024,9 hPa 0,0 l/m 2 min 0 min 701 W/m 12,9 km/h (3 Bft) 91,49 %
24.03.2019 12:36 14,2 C 21,1 C 17,2 C 64 % 1024,9 hPa 0,0 l/m 2 min 0 min 634 W/m 12,9 km/h (3 Bft) 95,74 %
24.03.2019 12:38 14,1 C 20,0 C 17,2 C 63 % 1024,8 hPa 0,0 l/m 2 min 0 min 544 W/m 22,5 km/h (4 Bft) 95,65 %
24.03.2019 12:40 14,1 C 20,0 C 17,2 C 62 % 1024,9 hPa 0,0 l/m 2 min 0 min 610 W/m 16,1 km/h (3 Bft) 95,74 %
24.03.2019 12:42 14,1 C 21,1 C 18,3 C 63 % 1024,8 hPa 0,0 l/m 2 min 0 min 639 W/m 12,9 km/h (3 Bft) 97,87 %
24.03.2019 12:44 14,1 C 20,6 C 18,3 C 64 % 1024,9 hPa 0,0 l/m 2 min 0 min 679 W/m 25,7 km/h (4 Bft) 95,74 %
24.03.2019 12:46 14,0 C 19,4 C 18,3 C 62 % 1024,9 hPa 0,0 l/m 2 min 0 min 641 W/m 29,0 km/h (5 Bft) 95,74 %
24.03.2019 12:48 13,9 C 20,0 C 18,9 C 61 % 1024,9 hPa 0,0 l/m 2 min 0 min 696 W/m 19,3 km/h (3 Bft) 95,74 %
24.03.2019 12:50 13,9 C 20,6 C 19,4 C 61 % 1024,9 hPa 0,0 l/m 2 min 0 min 670 W/m 12,9 km/h (3 Bft) 95,74 %
24.03.2019 12:52 13,9 C 21,1 C 20,0 C 62 % 1024,9 hPa 0,0 l/m 2 min 0 min 635 W/m 16,1 km/h (3 Bft) 95,65 %
24.03.2019 12:54 14,0 C 21,1 C 20,0 C 62 % 1024,8 hPa 0,0 l/m 2 min 0 min 648 W/m 16,1 km/h (3 Bft) 93,62 %
24.03.2019 12:56 14,0 C 21,1 C 20,0 C 61 % 1024,8 hPa 0,0 l/m 2 min 0 min 588 W/m 12,9 km/h (3 Bft) 97,87 %
24.03.2019 12:58 14,1 C 21,1 C 20,0 C 60 % 1024,8 hPa 0,0 l/m 2 min 0 min 583 W/m 12,9 km/h (3 Bft) 97,87 %
24.03.2019 13:00 14,1 C 20,6 C 20,0 C 60 % 1024,8 hPa 0,0 l/m 2 min 0 min 579 W/m 22,5 km/h (4 Bft) 95,74 %
24.03.2019 13:02 14,2 C 20,0 C 20,0 C 60 % 1024,8 hPa 0,0 l/m 2 min 0 min 609 W/m 22,5 km/h (4 Bft) 97,87 %
24.03.2019 13:04 14,2 C 20,6 C 20,6 C 60 % 1024,7 hPa 0,0 l/m 2 min 0 min 645 W/m 19,3 km/h (3 Bft) 97,83 %
24.03.2019 13:06 14,2 C 20,0 C 19,4 C 60 % 1024,7 hPa 0,0 l/m 2 min 0 min 619 W/m 9,7 km/h (2 Bft) 97,87 %
24.03.2019 13:08 14,2 C 20,6 C 18,9 C 60 % 1024,7 hPa 0,0 l/m 2 min 0 min 650 W/m 16,1 km/h (3 Bft) 97,87 %
24.03.2019 13:10 14,1 C 19,4 C 18,3 C 57 % 1024,6 hPa 0,0 l/m 2 min 0 min 600 W/m 16,1 km/h (3 Bft) 97,87 %
24.03.2019 13:12 14,0 C 19,4 C 18,3 C 58 % 1024,7 hPa 0,0 l/m 2 min 0 min 616 W/m 19,3 km/h (3 Bft) 97,87 %
24.03.2019 13:14 14,1 C 20,6 C 19,4 C 58 % 1024,7 hPa 0,0 l/m 2 min 0 min 621 W/m 22,5 km/h (4 Bft) 95,65 %
24.03.2019 13:16 14,0 C 20,0 C 19,4 C 55 % 1024,7 hPa 0,0 l/m 2 min 0 min 680 W/m 22,5 km/h (4 Bft) 97,87 %
24.03.2019 13:18 14,1 C 20,6 C 20,0 C 55 % 1024,7 hPa 0,0 l/m 2 min 0 min 647 W/m 12,9 km/h (3 Bft) 95,74 %
24.03.2019 13:20 14,1 C 21,1 C 19,4 C 55 % 1024,6 hPa 0,0 l/m 2 min 0 min 592 W/m 12,9 km/h (3 Bft) 100,00 %
24.03.2019 13:22 14,1 C 21,1 C 18,9 C 55 % 1024,7 hPa 0,0 l/m 2 min 0 min 676 W/m 19,3 km/h (3 Bft) 100,00 %
24.03.2019 13:24 14,2 C 21,7 C 19,4 C 57 % 1024,6 hPa 0,0 l/m 2 min 0 min 729 W/m 22,5 km/h (4 Bft) 97,87 %
24.03.2019 13:26 14,2 C 21,7 C 20,0 C 57 % 1024,7 hPa 0,0 l/m 2 min 0 min 743 W/m 22,5 km/h (4 Bft) 100,00 %
24.03.2019 13:28 14,2 C 21,1 C 20,0 C 56 % 1024,6 hPa 0,0 l/m 2 min 0 min 717 W/m 19,3 km/h (3 Bft) 100,00 %
24.03.2019 13:30 14,2 C 21,7 C 19,4 C 58 % 1024,6 hPa 0,0 l/m 2 min 0 min 582 W/m 16,1 km/h (3 Bft) 100,00 %
24.03.2019 13:32 14,2 C 20,6 C 18,9 C 56 % 1024,6 hPa 0,0 l/m 2 min 0 min 649 W/m 22,5 km/h (4 Bft) 100,00 %
24.03.2019 13:34 14,2 C 20,0 C 18,3 C 57 % 1024,6 hPa 0,0 l/m 2 min 0 min 691 W/m 25,7 km/h (4 Bft) 97,87 %
24.03.2019 13:36 14,2 C 20,0 C 17,8 C 58 % 1024,6 hPa 0,0 l/m 2 min 0 min 628 W/m 29,0 km/h (5 Bft) 100,00 %
24.03.2019 13:38 14,2 C 18,3 C 17,2 C 56 % 1024,7 hPa 0,0 l/m 2 min 0 min 514 W/m 25,7 km/h (4 Bft) 97,83 %
24.03.2019 13:40 14,2 C 17,8 C 16,7 C 56 % 1024,6 hPa 0,0 l/m 2 min 0 min 475 W/m 16,1 km/h (3 Bft) 95,74 %
24.03.2019 13:42 14,2 C 17,8 C 16,7 C 56 % 1024,6 hPa 0,0 l/m 2 min 0 min 443 W/m 22,5 km/h (4 Bft) 95,74 %
24.03.2019 13:44 14,1 C 17,8 C 16,7 C 56 % 1024,7 hPa 0,0 l/m 2 min 0 min 552 W/m 25,7 km/h (4 Bft) 95,74 %
24.03.2019 13:46 13,9 C 17,2 C 16,1 C 54 % 1024,6 hPa 0,0 l/m 2 min 0 min 520 W/m 19,3 km/h (3 Bft) 100,00 %
24.03.2019 13:48 13,9 C 16,7 C 15,0 C 52 % 1024,6 hPa 0,0 l/m 2 min 0 min 435 W/m 22,5 km/h (4 Bft) 97,87 %
24.03.2019 13:50 13,7 C 16,1 C 14,4 C 52 % 1024,6 hPa 0,0 l/m 2 min 0 min 464 W/m 29,0 km/h (5 Bft) 97,83 %
24.03.2019 13:52 13,6 C 16,1 C 13,9 C 52 % 1024,6 hPa 0,0 l/m 2 min 0 min 468 W/m 32,2 km/h (5 Bft) 97,87 %
24.03.2019 13:54 13,5 C 16,7 C 13,9 C 54 % 1024,6 hPa 0,0 l/m 2 min 0 min 581 W/m 22,5 km/h (4 Bft) 95,74 %
24.03.2019 13:56 13,4 C 17,2 C 13,9 C 55 % 1024,5 hPa 0,0 l/m 2 min 0 min 573 W/m 12,9 km/h (3 Bft) 97,87 %
24.03.2019 13:58 13,4 C 17,8 C 14,4 C 56 % 1024,5 hPa 0,0 l/m 2 min 0 min 576 W/m 16,1 km/h (3 Bft) 95,74 %
24.03.2019 14:00 13,4 C 16,1 C 13,9 C 53 % 1024,6 hPa 0,0 l/m 2 min 0 min 508 W/m 35,4 km/h (5 Bft) 97,83 %
24.03.2019 14:02 13,3 C 16,1 C 13,9 C 51 % 1024,6 hPa 0,0 l/m 2 min 0 min 475 W/m 29,0 km/h (5 Bft) 97,87 %
24.03.2019 14:04 13,2 C 15,6 C 13,9 C 53 % 1024,6 hPa 0,0 l/m 2 min 0 min 396 W/m 19,3 km/h (3 Bft) 97,87 %
24.03.2019 14:06 13,1 C 15,6 C 13,9 C 54 % 1024,6 hPa 0,0 l/m 2 min 0 min 384 W/m 25,7 km/h (4 Bft) 97,87 %
24.03.2019 14:08 13,0 C 15,0 C 13,9 C 53 % 1024,5 hPa 0,0 l/m 2 min 0 min 359 W/m 25,7 km/h (4 Bft) 97,87 %
24.03.2019 14:10 12,9 C 15,0 C 13,3 C 52 % 1024,6 hPa 0,0 l/m 2 min 0 min 397 W/m 19,3 km/h (3 Bft) 97,87 %
24.03.2019 14:12 12,8 C 15,0 C 13,3 C 52 % 1024,5 hPa 0,0 l/m 2 min 0 min 404 W/m 29,0 km/h (5 Bft) 97,83 %
24.03.2019 14:14 12,8 C 14,4 C 12,8 C 52 % 1024,4 hPa 0,0 l/m 2 min 0 min 349 W/m 25,7 km/h (4 Bft) 97,87 %
24.03.2019 14:16 12,7 C 14,4 C 12,8 C 52 % 1024,4 hPa 0,0 l/m 2 min 0 min 382 W/m 25,7 km/h (4 Bft) 93,62 %
24.03.2019 14:18 12,6 C 14,4 C 12,8 C 53 % 1024,4 hPa 0,0 l/m 2 min 0 min 363 W/m 22,5 km/h (4 Bft) 97,87 %
24.03.2019 14:20 12,5 C 14,4 C 12,8 C 54 % 1024,4 hPa 0,0 l/m 2 min 0 min 356 W/m 25,7 km/h (4 Bft) 97,87 %
24.03.2019 14:22 12,4 C 15,0 C 12,8 C 54 % 1024,5 hPa 0,0 l/m 2 min 0 min 452 W/m 25,7 km/h (4 Bft) 95,74 %
24.03.2019 14:24 12,4 C 15,6 C 12,8 C 55 % 1024,4 hPa 0,0 l/m 2 min 0 min 463 W/m 19,3 km/h (3 Bft) 97,83 %
24.03.2019 14:26 12,3 C 15,6 C 12,8 C 54 % 1024,4 hPa 0,0 l/m 2 min 0 min 449 W/m 22,5 km/h (4 Bft) 100,00 %
24.03.2019 14:28 12,3 C 16,7 C 12,8 C 55 % 1024,3 hPa 0,0 l/m 2 min 0 min 557 W/m 25,7 km/h (4 Bft) 97,87 %
24.03.2019 14:30 12,3 C 16,1 C 12,2 C 54 % 1024,3 hPa 0,0 l/m 2 min 0 min 579 W/m 29,0 km/h (5 Bft) 97,87 %
24.03.2019 14:32 12,3 C 16,7 C 12,8 C 56 % 1024,3 hPa 0,0 l/m 2 min 0 min 458 W/m 22,5 km/h (4 Bft) 100,00 %
24.03.2019 14:34 12,3 C 16,7 C 12,8 C 56 % 1024,3 hPa 0,0 l/m 2 min 0 min 503 W/m 22,5 km/h (4 Bft) 100,00 %
24.03.2019 14:36 12,3 C 17,8 C 12,8 C 57 % 1024,2 hPa 0,0 l/m 2 min 0 min 623 W/m 22,5 km/h (4 Bft) 97,83 %
24.03.2019 14:38 12,4 C 18,9 C 12,8 C 57 % 1024,2 hPa 0,0 l/m 2 min 0 min 641 W/m 19,3 km/h (3 Bft) 100,00 %
24.03.2019 14:40 12,4 C 18,9 C 12,8 C 54 % 1024,3 hPa 0,0 l/m 2 min 0 min 653 W/m 22,5 km/h (4 Bft) 97,87 %
24.03.2019 14:42 12,6 C 19,4 C 12,8 C 55 % 1024,2 hPa 0,0 l/m 2 min 0 min 660 W/m 25,7 km/h (4 Bft) 100,00 %
24.03.2019 14:44 12,7 C 20,0 C 13,3 C 56 % 1024,1 hPa 0,0 l/m 2 min 0 min 654 W/m 19,3 km/h (3 Bft) 100,00 %
24.03.2019 14:46 12,7 C 19,4 C 12,8 C 53 % 1024,2 hPa 0,0 l/m 2 min 0 min 653 W/m 19,3 km/h (3 Bft) 95,74 %
24.03.2019 14:48 12,8 C 19,4 C 12,8 C 54 % 1024,2 hPa 0,0 l/m 2 min 0 min 645 W/m 22,5 km/h (4 Bft) 97,83 %
24.03.2019 14:50 12,8 C 18,3 C 12,8 C 53 % 1024,2 hPa 0,0 l/m 2 min 0 min 642 W/m 25,7 km/h (4 Bft) 100,00 %
24.03.2019 14:52 12,9 C 18,9 C 12,2 C 53 % 1024,1 hPa 0,0 l/m 2 min 0 min 634 W/m 19,3 km/h (3 Bft) 100,00 %
24.03.2019 14:54 12,9 C 18,9 C 12,8 C 53 % 1024,1 hPa 0,0 l/m 2 min 0 min 619 W/m 22,5 km/h (4 Bft) 100,00 %
24.03.2019 14:56 13,0 C 19,4 C 12,8 C 55 % 1024,1 hPa 0,0 l/m 2 min 0 min 610 W/m 19,3 km/h (3 Bft) 100,00 %
24.03.2019 14:58 13,1 C 19,4 C 12,8 C 55 % 1024,2 hPa 0,0 l/m 2 min 0 min 612 W/m 29,0 km/h (5 Bft) 100,00 %
24.03.2019 15:00 13,2 C 19,4 C 12,8 C 56 % 1024,1 hPa 0,0 l/m 2 min 0 min 602 W/m 16,1 km/h (3 Bft) 100,00 %
24.03.2019 15:02 13,3 C 19,4 C 12,8 C 56 % 1024,1 hPa 0,0 l/m 2 min 0 min 599 W/m 12,9 km/h (3 Bft) 100,00 %
24.03.2019 15:04 13,3 C 19,4 C 12,8 C 54 % 1024,0 hPa 0,0 l/m 2 min 0 min 595 W/m 22,5 km/h (4 Bft) 100,00 %
24.03.2019 15:06 13,3 C 18,9 C 12,8 C 54 % 1023,9 hPa 0,0 l/m 2 min 0 min 590 W/m 9,7 km/h (2 Bft) 100,00 %
24.03.2019 15:08 13,3 C 19,4 C 12,8 C 54 % 1023,9 hPa 0,0 l/m 2 min 0 min 585 W/m 16,1 km/h (3 Bft) 100,00 %
24.03.2019 15:10 13,4 C 18,9 C 12,2 C 53 % 1024,0 hPa 0,0 l/m 2 min 0 min 581 W/m 19,3 km/h (3 Bft) 100,00 %
24.03.2019 15:12 13,3 C 18,9 C 12,2 C 54 % 1023,9 hPa 0,0 l/m 2 min 0 min 580 W/m 16,1 km/h (3 Bft) 100,00 %
24.03.2019 15:14 13,3 C 18,9 C 12,2 C 54 % 1023,9 hPa 0,0 l/m 2 min 0 min 573 W/m 25,7 km/h (4 Bft) 100,00 %
24.03.2019 15:16 13,4 C 18,3 C 12,2 C 55 % 1023,9 hPa 0,0 l/m 2 min 0 min 565 W/m 19,3 km/h (3 Bft) 97,87 %
24.03.2019 15:18 13,4 C 18,9 C 12,8 C 56 % 1023,9 hPa 0,0 l/m 2 min 0 min 561 W/m 12,9 km/h (3 Bft) 100,00 %
24.03.2019 15:20 13,4 C 18,9 C 12,2 C 52 % 1023,9 hPa 0,0 l/m 2 min 0 min 561 W/m 22,5 km/h (4 Bft) 100,00 %
24.03.2019 15:22 13,4 C 18,3 C 12,2 C 51 % 1024,0 hPa 0,0 l/m 2 min 0 min 556 W/m 25,7 km/h (4 Bft) 100,00 %
24.03.2019 15:24 13,3 C 17,8 C 12,8 C 51 % 1023,9 hPa 0,0 l/m 2 min 0 min 550 W/m 22,5 km/h (4 Bft) 100,00 %
24.03.2019 15:26 13,3 C 18,3 C 12,8 C 51 % 1023,9 hPa 0,0 l/m 2 min 0 min 547 W/m 12,9 km/h (3 Bft) 97,87 %
24.03.2019 15:28 13,3 C 18,9 C 12,2 C 50 % 1023,9 hPa 0,0 l/m 2 min 0 min 543 W/m 16,1 km/h (3 Bft) 97,87 %
24.03.2019 15:30 13,3 C 18,9 C 12,8 C 50 % 1023,9 hPa 0,0 l/m 2 min 0 min 533 W/m 22,5 km/h (4 Bft) 97,87 %
24.03.2019 15:32 13,4 C 18,9 C 12,8 C 48 % 1023,9 hPa 0,0 l/m 2 min 0 min 531 W/m 22,5 km/h (4 Bft) 97,87 %
24.03.2019 15:34 13,4 C 18,9 C 12,8 C 49 % 1023,9 hPa 0,0 l/m 2 min 0 min 526 W/m 22,5 km/h (4 Bft) 97,87 %
24.03.2019 15:36 13,4 C 18,3 C 12,2 C 48 % 1023,9 hPa 0,0 l/m 2 min 0 min 521 W/m 22,5 km/h (4 Bft) 97,83 %
24.03.2019 15:38 13,4 C 18,3 C 12,8 C 48 % 1023,9 hPa 0,0 l/m 2 min 0 min 515 W/m 19,3 km/h (3 Bft) 97,87 %
24.03.2019 15:40 13,4 C 18,9 C 12,2 C 47 % 1023,8 hPa 0,0 l/m 2 min 0 min 513 W/m 12,9 km/h (3 Bft) 97,87 %
24.03.2019 15:42 13,4 C 18,3 C 12,2 C 47 % 1023,8 hPa 0,0 l/m 2 min 0 min 508 W/m 16,1 km/h (3 Bft) 95,74 %
24.03.2019 15:44 13,4 C 17,8 C 12,8 C 47 % 1023,8 hPa 0,0 l/m 2 min 0 min 504 W/m 25,7 km/h (4 Bft) 97,87 %
24.03.2019 15:46 13,3 C 17,2 C 12,8 C 46 % 1023,8 hPa 0,0 l/m 2 min 0 min 499 W/m 22,5 km/h (4 Bft) 97,83 %
24.03.2019 15:48 13,4 C 17,8 C 12,8 C 48 % 1023,7 hPa 0,0 l/m 2 min 0 min 493 W/m 16,1 km/h (3 Bft) 97,87 %
24.03.2019 15:50 13,4 C 17,8 C 13,3 C 47 % 1023,7 hPa 0,0 l/m 2 min 0 min 488 W/m 16,1 km/h (3 Bft) 97,87 %
24.03.2019 15:52 13,4 C 17,2 C 12,8 C 46 % 1023,7 hPa 0,0 l/m 2 min 0 min 484 W/m 12,9 km/h (3 Bft) 97,87 %
24.03.2019 15:54 13,4 C 17,2 C 13,3 C 48 % 1023,7 hPa 0,0 l/m 2 min 0 min 480 W/m 19,3 km/h (3 Bft) 97,87 %
24.03.2019 15:56 13,3 C 17,2 C 13,3 C 45 % 1023,6 hPa 0,0 l/m 2 min 0 min 474 W/m 22,5 km/h (4 Bft) 97,87 %
24.03.2019 15:58 13,3 C 17,8 C 13,9 C 46 % 1023,5 hPa 0,0 l/m 2 min 0 min 468 W/m 12,9 km/h (3 Bft) 95,65 %
24.03.2019 16:00 13,3 C 17,8 C 13,9 C 47 % 1023,5 hPa 0,0 l/m 2 min 0 min 463 W/m 6,4 km/h (2 Bft) 97,87 %
24.03.2019 16:02 13,4 C 17,8 C 13,3 C 46 % 1023,5 hPa 0,0 l/m 2 min 0 min 456 W/m 12,9 km/h (3 Bft) 95,74 %
24.03.2019 16:04 13,4 C 17,8 C 12,8 C 47 % 1023,5 hPa 0,0 l/m 2 min 0 min 449 W/m 19,3 km/h (3 Bft) 97,87 %
24.03.2019 16:06 13,4 C 17,8 C 13,3 C 48 % 1023,5 hPa 0,0 l/m 2 min 0 min 444 W/m 12,9 km/h (3 Bft) 97,87 %
24.03.2019 16:08 13,5 C 17,8 C 13,3 C 48 % 1023,4 hPa 0,0 l/m 2 min 0 min 438 W/m 9,7 km/h (2 Bft) 95,74 %
24.03.2019 16:10 13,5 C 18,3 C 13,3 C 47 % 1023,4 hPa 0,0 l/m 2 min 0 min 434 W/m 9,7 km/h (2 Bft) 95,65 %
24.03.2019 16:12 13,6 C 17,8 C 13,9 C 49 % 1023,5 hPa 0,0 l/m 2 min 0 min 428 W/m 19,3 km/h (3 Bft) 97,87 %
24.03.2019 16:14 13,6 C 17,2 C 15,0 C 46 % 1023,5 hPa 0,0 l/m 2 min 0 min 422 W/m 19,3 km/h (3 Bft) 97,87 %
24.03.2019 16:16 13,6 C 16,7 C 15,0 C 45 % 1023,5 hPa 0,0 l/m 2 min 0 min 416 W/m 19,3 km/h (3 Bft) 100,00 %
24.03.2019 16:18 13,6 C 16,7 C 15,0 C 46 % 1023,4 hPa 0,0 l/m 2 min 0 min 410 W/m 12,9 km/h (3 Bft) 100,00 %
24.03.2019 16:20 13,6 C 16,7 C 15,0 C 48 % 1023,4 hPa 0,0 l/m 2 min 0 min 404 W/m 12,9 km/h (3 Bft) 95,74 %
24.03.2019 16:22 13,6 C 16,7 C 13,9 C 47 % 1023,5 hPa 0,0 l/m 2 min 0 min 397 W/m 9,7 km/h (2 Bft) 93,48 %
24.03.2019 16:24 13,6 C 16,7 C 13,3 C 48 % 1023,4 hPa 0,0 l/m 2 min 0 min 391 W/m 12,9 km/h (3 Bft) 97,87 %
24.03.2019 16:26 13,5 C 16,7 C 12,8 C 48 % 1023,4 hPa 0,0 l/m 2 min 0 min 384 W/m 9,7 km/h (2 Bft) 97,87 %
24.03.2019 16:28 13,5 C 16,7 C 12,8 C 49 % 1023,4 hPa 0,0 l/m 2 min 0 min 379 W/m 9,7 km/h (2 Bft) 97,87 %
24.03.2019 16:30 13,5 C 16,1 C 12,2 C 48 % 1023,4 hPa 0,0 l/m 2 min 0 min 371 W/m 16,1 km/h (3 Bft) 95,74 %
24.03.2019 16:32 13,4 C 16,1 C 12,2 C 48 % 1023,4 hPa 0,0 l/m 2 min 0 min 366 W/m 6,4 km/h (2 Bft) 95,74 %
24.03.2019 16:34 13,4 C 16,1 C 12,2 C 47 % 1023,4 hPa 0,0 l/m 2 min 0 min 360 W/m 12,9 km/h (3 Bft) 93,48 %
24.03.2019 16:36 13,3 C 15,6 C 11,7 C 48 % 1023,3 hPa 0,0 l/m 2 min 0 min 354 W/m 16,1 km/h (3 Bft) 95,74 %
24.03.2019 16:38 13,3 C 15,6 C 11,7 C 48 % 1023,3 hPa 0,0 l/m 2 min 0 min 348 W/m 12,9 km/h (3 Bft) 95,74 %
24.03.2019 16:40 13,3 C 15,6 C 11,7 C 48 % 1023,2 hPa 0,0 l/m 2 min 0 min 342 W/m 3,2 km/h (1 Bft) 95,74 %
24.03.2019 16:42 13,3 C 16,1 C 11,7 C 50 % 1023,2 hPa 0,0 l/m 2 min 0 min 336 W/m 0,0 km/h (0 Bft) 95,74 %
24.03.2019 16:44 13,2 C 15,6 C 11,1 C 50 % 1023,2 hPa 0,0 l/m 2 min 0 min 330 W/m 9,7 km/h (2 Bft) 95,65 %
24.03.2019 16:46 13,2 C 15,6 C 11,1 C 51 % 1023,3 hPa 0,0 l/m 2 min 0 min 323 W/m 12,9 km/h (3 Bft) 95,74 %
24.03.2019 16:48 13,2 C 15,6 C 11,1 C 51 % 1023,2 hPa 0,0 l/m 2 min 0 min 318 W/m 6,4 km/h (2 Bft) 95,74 %
24.03.2019 16:50 13,2 C 15,0 C 11,1 C 51 % 1023,1 hPa 0,0 l/m 2 min 0 min 313 W/m 9,7 km/h (2 Bft) 97,87 %
24.03.2019 16:52 13,2 C 15,0 C 11,1 C 52 % 1023,2 hPa 0,0 l/m 2 min 0 min 306 W/m 6,4 km/h (2 Bft) 93,62 %
24.03.2019 16:54 13,1 C 13,3 C 11,1 C 52 % 1023,2 hPa 0,0 l/m 2 min 0 min 301 W/m 9,7 km/h (2 Bft) 97,14 %
24.03.2019 16:56 13,0 C 12,8 C 11,1 C 53 % 1023,1 hPa 0,0 l/m 2 min 0 min 268 W/m 9,7 km/h (2 Bft) 93,75 %
24.03.2019 16:58 12,9 C 12,2 C 10,6 C 52 % 1023,1 hPa 0,0 l/m 0 min 0 min 108 W/m 12,9 km/h (3 Bft) 95,74 %
24.03.2019 17:00 12,8 C 11,7 C 10,6 C 52 % 1023,1 hPa 0,0 l/m 0 min 0 min 50 W/m 9,7 km/h (2 Bft) 93,62 %
24.03.2019 17:02 12,7 C 11,7 C 10,6 C 52 % 1023,2 hPa 0,0 l/m 0 min 0 min 49 W/m 9,7 km/h (2 Bft) 93,62 %
24.03.2019 17:04 12,6 C 11,1 C 10,6 C 53 % 1023,2 hPa 0,0 l/m 0 min 0 min 49 W/m 12,9 km/h (3 Bft) 93,62 %
24.03.2019 17:06 12,5 C 11,1 C 10,6 C 52 % 1023,2 hPa 0,0 l/m 0 min 0 min 49 W/m 12,9 km/h (3 Bft) 96,55 %
24.03.2019 17:08 12,4 C 11,1 C 10,6 C 54 % 1023,1 hPa 0,0 l/m 0 min 0 min 48 W/m 9,7 km/h (2 Bft) 97,14 %
24.03.2019 17:10 12,3 C 11,1 C 10,0 C 55 % 1023,2 hPa 0,0 l/m 0 min 0 min 47 W/m 12,9 km/h (3 Bft) 95,74 %
24.03.2019 17:12 12,2 C 10,6 C 10,0 C 55 % 1023,1 hPa 0,0 l/m 0 min 0 min 47 W/m 9,7 km/h (2 Bft) 97,87 %
24.03.2019 17:14 12,1 C 10,6 C 10,0 C 55 % 1023,0 hPa 0,0 l/m 0 min 0 min 46 W/m 6,4 km/h (2 Bft) 97,87 %
24.03.2019 17:16 12,0 C 10,6 C 10,0 C 56 % 1023,0 hPa 0,0 l/m 0 min 0 min 46 W/m 12,9 km/h (3 Bft) 97,87 %
24.03.2019 17:18 11,9 C 10,6 C 10,0 C 56 % 1023,0 hPa 0,0 l/m 0 min 0 min 44 W/m 6,4 km/h (2 Bft) 93,48 %
24.03.2019 17:20 11,9 C 10,6 C 10,0 C 56 % 1022,9 hPa 0,0 l/m 0 min 0 min 44 W/m 6,4 km/h (2 Bft) 97,87 %
24.03.2019 17:22 11,8 C 10,6 C 10,0 C 57 % 1022,9 hPa 0,0 l/m 0 min 0 min 43 W/m 25,7 km/h (4 Bft) 97,87 %
24.03.2019 17:24 11,7 C 10,6 C 10,0 C 56 % 1023,0 hPa 0,0 l/m 0 min 0 min 41 W/m 29,0 km/h (5 Bft) 95,74 %
24.03.2019 17:26 11,6 C 10,6 C 10,0 C 57 % 1023,0 hPa 0,0 l/m 0 min 0 min 40 W/m 12,9 km/h (3 Bft) 93,62 %
24.03.2019 17:28 11,6 C 10,6 C 10,0 C 57 % 1023,0 hPa 0,0 l/m 0 min 0 min 40 W/m 6,4 km/h (2 Bft) 100,00 %
24.03.2019 17:30 11,5 C 10,6 C 10,0 C 56 % 1023,0 hPa 0,0 l/m 0 min 0 min 39 W/m 9,7 km/h (2 Bft) 100,00 %
24.03.2019 17:32 11,4 C 10,6 C 10,0 C 56 % 1022,9 hPa 0,0 l/m 0 min 0 min 39 W/m 9,7 km/h (2 Bft) 97,87 %
24.03.2019 17:34 11,4 C 10,6 C 10,0 C 57 % 1022,9 hPa 0,0 l/m 0 min 0 min 38 W/m 12,9 km/h (3 Bft) 100,00 %
24.03.2019 17:36 11,3 C 10,6 C 10,0 C 57 % 1022,9 hPa 0,0 l/m 0 min 0 min 37 W/m 16,1 km/h (3 Bft) 98,31 %
24.03.2019 17:38 11,2 C 10,0 C 10,0 C 56 % 1022,9 hPa 0,0 l/m 0 min 0 min 36 W/m 19,3 km/h (3 Bft) 97,14 %
24.03.2019 17:40 11,1 C 10,0 C 9,4 C 56 % 1022,9 hPa 0,0 l/m 0 min 0 min 34 W/m 19,3 km/h (3 Bft) 95,74 %
24.03.2019 17:42 11,1 C 10,0 C 9,4 C 56 % 1022,9 hPa 0,0 l/m 0 min 0 min 33 W/m 12,9 km/h (3 Bft) 100,00 %
24.03.2019 17:44 11,0 C 10,0 C 9,4 C 57 % 1022,8 hPa 0,0 l/m 0 min 0 min 32 W/m 12,9 km/h (3 Bft) 95,74 %
24.03.2019 17:46 10,9 C 10,0 C 9,4 C 55 % 1022,9 hPa 0,0 l/m 0 min 0 min 32 W/m 12,9 km/h (3 Bft) 100,00 %
24.03.2019 17:48 10,9 C 10,0 C 9,4 C 56 % 1022,9 hPa 0,0 l/m 0 min 0 min 30 W/m 9,7 km/h (2 Bft) 100,00 %
24.03.2019 17:50 10,9 C 10,0 C 9,4 C 55 % 1022,8 hPa 0,0 l/m 0 min 0 min 30 W/m 12,9 km/h (3 Bft) 100,00 %
24.03.2019 17:52 10,8 C 10,0 C 9,4 C 54 % 1022,9 hPa 0,0 l/m 0 min 0 min 29 W/m 12,9 km/h (3 Bft) 100,00 %
24.03.2019 17:54 10,8 C 10,0 C 9,4 C 55 % 1022,9 hPa 0,0 l/m 0 min 0 min 28 W/m 16,1 km/h (3 Bft) 100,00 %
24.03.2019 17:56 10,7 C 10,0 C 9,4 C 54 % 1022,9 hPa 0,0 l/m 0 min 0 min 28 W/m 12,9 km/h (3 Bft) 100,00 %
24.03.2019 17:58 10,7 C 9,4 C 9,4 C 55 % 1022,8 hPa 0,0 l/m 0 min 0 min 28 W/m 12,9 km/h (3 Bft) 100,00 %
24.03.2019 18:00 10,7 C 9,4 C 9,4 C 55 % 1022,8 hPa 0,0 l/m 0 min 0 min 26 W/m 9,7 km/h (2 Bft) 100,00 %
24.03.2019 18:02 10,6 C 9,4 C 8,9 C 55 % 1022,8 hPa 0,0 l/m 0 min 0 min 26 W/m 22,5 km/h (4 Bft) 97,87 %
24.03.2019 18:04 10,6 C 9,4 C 8,9 C 54 % 1022,8 hPa 0,0 l/m 0 min 0 min 26 W/m 9,7 km/h (2 Bft) 100,00 %
24.03.2019 18:08 10,5 C 9,4 C 8,9 C 54 % 1022,8 hPa 0,0 l/m 0 min 0 min 25 W/m 9,7 km/h (2 Bft) 100,00 %
24.03.2019 18:10 10,4 C 9,4 C 8,9 C 54 % 1022,8 hPa 0,0 l/m 0 min 0 min 23 W/m 9,7 km/h (2 Bft) 100,00 %
24.03.2019 18:12 10,3 C 9,4 C 8,9 C 54 % 1022,8 hPa 0,0 l/m 0 min 0 min 23 W/m 9,7 km/h (2 Bft) 100,00 %
24.03.2019 18:14 10,3 C 9,4 C 8,9 C 54 % 1022,8 hPa 0,0 l/m 0 min 0 min 23 W/m 16,1 km/h (3 Bft) 100,00 %
24.03.2019 18:16 10,2 C 9,4 C 8,9 C 55 % 1022,8 hPa 0,0 l/m 0 min 0 min 21 W/m 16,1 km/h (3 Bft) 97,87 %
24.03.2019 18:18 10,2 C 8,9 C 8,9 C 55 % 1022,7 hPa 0,0 l/m 0 min 0 min 21 W/m 16,1 km/h (3 Bft) 100,00 %
24.03.2019 18:20 10,2 C 8,9 C 8,9 C 55 % 1022,7 hPa 0,0 l/m 0 min 0 min 19 W/m 16,1 km/h (3 Bft) 100,00 %
24.03.2019 18:22 10,1 C 8,9 C 8,9 C 56 % 1022,7 hPa 0,0 l/m 0 min 0 min 19 W/m 12,9 km/h (3 Bft) 97,87 %
24.03.2019 18:24 10,1 C 8,9 C 8,3 C 56 % 1022,8 hPa 0,0 l/m 0 min 0 min 18 W/m 9,7 km/h (2 Bft) 97,87 %
24.03.2019 18:26 10,1 C 8,9 C 8,3 C 56 % 1022,9 hPa 0,0 l/m 0 min 0 min 18 W/m 9,7 km/h (2 Bft) 97,87 %
24.03.2019 18:28 10,0 C 8,9 C 8,3 C 57 % 1022,8 hPa 0,0 l/m 0 min 0 min 16 W/m 12,9 km/h (3 Bft) 97,87 %
24.03.2019 18:30 10,0 C 8,9 C 8,3 C 57 % 1022,8 hPa 0,0 l/m 0 min 0 min 16 W/m 16,1 km/h (3 Bft) 97,83 %
24.03.2019 18:32 9,9 C 8,9 C 8,3 C 57 % 1022,8 hPa 0,0 l/m 0 min 0 min 15 W/m 9,7 km/h (2 Bft) 95,74 %
24.03.2019 18:34 9,9 C 8,3 C 8,3 C 58 % 1022,8 hPa 0,0 l/m 0 min 0 min 14 W/m 9,7 km/h (2 Bft) 97,87 %
24.03.2019 18:36 9,9 C 8,3 C 8,3 C 58 % 1022,8 hPa 0,0 l/m 0 min 0 min 14 W/m 12,9 km/h (3 Bft) 96,61 %
24.03.2019 18:38 9,8 C 8,3 C 8,3 C 59 % 1022,9 hPa 0,0 l/m 0 min 0 min 12 W/m 12,9 km/h (3 Bft) 100,00 %
24.03.2019 18:40 9,8 C 8,3 C 8,3 C 58 % 1022,9 hPa 0,0 l/m 0 min 0 min 12 W/m 16,1 km/h (3 Bft) 93,48 %
24.03.2019 18:42 9,8 C 8,3 C 7,8 C 59 % 1022,8 hPa 0,0 l/m 0 min 0 min 11 W/m 6,4 km/h (2 Bft) 95,74 %
24.03.2019 18:44 9,7 C 8,3 C 7,8 C 59 % 1022,8 hPa 0,0 l/m 0 min 0 min 10 W/m 6,4 km/h (2 Bft) 95,74 %
24.03.2019 18:46 9,7 C 7,8 C 7,8 C 60 % 1022,8 hPa 0,0 l/m 0 min 0 min 8 W/m 12,9 km/h (3 Bft) 95,74 %
24.03.2019 18:48 9,7 C 7,8 C 7,2 C 60 % 1022,8 hPa 0,0 l/m 0 min 0 min 7 W/m 6,4 km/h (2 Bft) 93,62 %
24.03.2019 18:50 9,6 C 7,8 C 7,2 C 60 % 1022,9 hPa 0,0 l/m 0 min 0 min 6 W/m 6,4 km/h (2 Bft) 95,74 %
24.03.2019 18:52 9,6 C 7,8 C 7,2 C 60 % 1022,8 hPa 0,0 l/m 0 min 0 min 5 W/m 6,4 km/h (2 Bft) 95,65 %
24.03.2019 18:54 9,5 C 7,8 C 7,2 C 61 % 1022,9 hPa 0,0 l/m 0 min 0 min 4 W/m 9,7 km/h (2 Bft) 95,74 %
24.03.2019 18:56 9,4 C 7,8 C 7,2 C 61 % 1022,8 hPa 0,0 l/m 0 min 0 min 0 W/m 6,4 km/h (2 Bft) 95,74 %
24.03.2019 18:58 9,4 C 7,8 C 7,2 C 62 % 1022,9 hPa 0,0 l/m 0 min 0 min 0 W/m 6,4 km/h (2 Bft) 95,74 %
24.03.2019 19:00 9,3 C 7,8 C 7,2 C 62 % 1022,9 hPa 0,0 l/m 0 min 0 min 0 W/m 6,4 km/h (2 Bft) 95,74 %
24.03.2019 19:02 9,3 C 7,8 C 7,2 C 62 % 1023,0 hPa 0,0 l/m 0 min 0 min 0 W/m 6,4 km/h (2 Bft) 95,74 %
24.03.2019 19:04 9,2 C 7,2 C 7,2 C 63 % 1023,0 hPa 0,0 l/m 0 min 0 min 0 W/m 6,4 km/h (2 Bft) 95,65 %
24.03.2019 19:06 9,2 C 7,2 C 7,2 C 63 % 1023,0 hPa 0,0 l/m 0 min 0 min 0 W/m 9,7 km/h (2 Bft) 96,61 %
24.03.2019 19:08 9,1 C 7,2 C 7,2 C 64 % 1023,0 hPa 0,0 l/m 0 min 0 min 0 W/m 6,4 km/h (2 Bft) 94,29 %
24.03.2019 19:10 9,1 C 7,2 C 7,2 C 64 % 1022,9 hPa 0,0 l/m 0 min 0 min 0 W/m 9,7 km/h (2 Bft) 93,62 %
24.03.2019 19:12 9,0 C 7,2 C 7,2 C 64 % 1022,9 hPa 0,0 l/m 0 min 0 min 0 W/m 12,9 km/h (3 Bft) 95,74 %
24.03.2019 19:14 8,9 C 7,2 C 7,2 C 65 % 1022,9 hPa 0,0 l/m 0 min 0 min 0 W/m 6,4 km/h (2 Bft) 97,87 %
24.03.2019 19:16 8,8 C 7,2 C 7,2 C 65 % 1022,9 hPa 0,0 l/m 0 min 0 min 0 W/m 9,7 km/h (2 Bft) 95,65 %
24.03.2019 19:18 8,8 C 7,2 C 7,2 C 66 % 1022,9 hPa 0,0 l/m 0 min 0 min 0 W/m 9,7 km/h (2 Bft) 97,87 %
24.03.2019 19:20 8,7 C 7,2 C 7,2 C 66 % 1023,1 hPa 0,0 l/m 0 min 0 min 0 W/m 12,9 km/h (3 Bft) 97,87 %
24.03.2019 19:22 8,7 C 7,2 C 7,2 C 66 % 1023,0 hPa 0,0 l/m 0 min 0 min 0 W/m 12,9 km/h (3 Bft) 97,87 %
24.03.2019 19:24 8,7 C 7,2 C 7,2 C 66 % 1023,1 hPa 0,0 l/m 0 min 0 min 0 W/m 9,7 km/h (2 Bft) 97,87 %
24.03.2019 19:26 8,6 C 7,2 C 7,2 C 66 % 1023,0 hPa 0,0 l/m 0 min 0 min 0 W/m 12,9 km/h (3 Bft) 95,74 %
24.03.2019 19:28 8,6 C 7,2 C 6,7 C 66 % 1023,0 hPa 0,0 l/m 0 min 0 min 0 W/m 12,9 km/h (3 Bft) 97,83 %
24.03.2019 19:30 8,5 C 7,2 C 6,7 C 67 % 1023,0 hPa 0,0 l/m 0 min 0 min 0 W/m 12,9 km/h (3 Bft) 97,87 %
24.03.2019 19:32 8,4 C 7,2 C 6,7 C 67 % 1023,0 hPa 0,0 l/m 0 min 0 min 0 W/m 9,7 km/h (2 Bft) 93,62 %
24.03.2019 19:34 8,4 C 7,2 C 6,7 C 67 % 1023,1 hPa 0,0 l/m 0 min 0 min 0 W/m 16,1 km/h (3 Bft) 95,74 %
24.03.2019 19:36 8,4 C 7,2 C 6,7 C 67 % 1023,2 hPa 0,0 l/m 0 min 0 min 0 W/m 12,9 km/h (3 Bft) 94,83 %
24.03.2019 19:38 8,3 C 7,2 C 6,7 C 67 % 1023,2 hPa 0,0 l/m 0 min 0 min 0 W/m 9,7 km/h (2 Bft) 95,74 %
24.03.2019 19:40 8,3 C 6,7 C 6,7 C 68 % 1023,2 hPa 0,0 l/m 0 min 0 min 0 W/m 6,4 km/h (2 Bft) 94,29 %
24.03.2019 19:42 8,2 C 6,7 C 6,7 C 68 % 1023,1 hPa 0,0 l/m 0 min 0 min 0 W/m 12,9 km/h (3 Bft) 95,74 %
24.03.2019 19:44 8,2 C 6,7 C 6,7 C 68 % 1023,2 hPa 0,0 l/m 0 min 0 min 0 W/m 9,7 km/h (2 Bft) 95,74 %
24.03.2019 19:46 8,2 C 6,7 C 6,7 C 68 % 1023,1 hPa 0,0 l/m 0 min 0 min 0 W/m 6,4 km/h (2 Bft) 97,87 %
24.03.2019 19:48 8,1 C 6,7 C 6,7 C 68 % 1023,1 hPa 0,0 l/m 0 min 0 min 0 W/m 9,7 km/h (2 Bft) 97,87 %
24.03.2019 19:50 8,1 C 6,1 C 6,1 C 69 % 1023,1 hPa 0,0 l/m 0 min 0 min 0 W/m 12,9 km/h (3 Bft) 95,65 %
24.03.2019 19:52 8,0 C 6,1 C 6,1 C 69 % 1023,1 hPa 0,0 l/m 0 min 0 min 0 W/m 9,7 km/h (2 Bft) 97,87 %
24.03.2019 19:54 7,9 C 6,1 C 6,1 C 69 % 1023,1 hPa 0,0 l/m 0 min 0 min 0 W/m 6,4 km/h (2 Bft) 97,87 %
24.03.2019 19:56 7,9 C 6,1 C 6,1 C 69 % 1023,1 hPa 0,0 l/m 0 min 0 min 0 W/m 6,4 km/h (2 Bft) 97,87 %
24.03.2019 19:58 7,9 C 6,1 C 6,1 C 69 % 1023,1 hPa 0,0 l/m 0 min 0 min 0 W/m 6,4 km/h (2 Bft) 91,49 %
24.03.2019 20:00 7,8 C 6,1 C 5,6 C 69 % 1023,1 hPa 0,0 l/m 0 min 0 min 0 W/m 6,4 km/h (2 Bft) 97,87 %
24.03.2019 20:02 7,8 C 6,1 C 5,6 C 70 % 1023,1 hPa 0,0 l/m 0 min 0 min 0 W/m 6,4 km/h (2 Bft) 97,83 %
24.03.2019 20:04 7,7 C 5,6 C 5,6 C 70 % 1023,1 hPa 0,0 l/m 0 min 0 min 0 W/m 6,4 km/h (2 Bft) 95,74 %
24.03.2019 20:06 7,7 C 5,6 C 5,6 C 70 % 1023,1 hPa 0,0 l/m 0 min 0 min 0 W/m 3,2 km/h (1 Bft) 96,61 %
24.03.2019 20:08 7,6 C 5,6 C 5,0 C 70 % 1023,1 hPa 0,0 l/m 0 min 0 min 0 W/m 6,4 km/h (2 Bft) 97,14 %
24.03.2019 20:10 7,6 C 5,6 C 5,0 C 70 % 1023,1 hPa 0,0 l/m 0 min 0 min 0 W/m 6,4 km/h (2 Bft) 97,87 %
24.03.2019 20:12 7,5 C 5,6 C 5,0 C 70 % 1023,1 hPa 0,0 l/m 0 min 0 min 0 W/m 3,2 km/h (1 Bft) 97,87 %
24.03.2019 20:14 7,4 C 5,6 C 5,0 C 71 % 1023,1 hPa 0,0 l/m 0 min 0 min 0 W/m 6,4 km/h (2 Bft) 95,65 %
24.03.2019 20:16 7,4 C 5,6 C 5,0 C 71 % 1023,1 hPa 0,0 l/m 0 min 0 min 0 W/m 6,4 km/h (2 Bft) 97,87 %
24.03.2019 20:18 7,3 C 5,6 C 5,0 C 71 % 1023,1 hPa 0,0 l/m 0 min 0 min 0 W/m 6,4 km/h (2 Bft) 95,92 %
24.03.2019 20:20 7,3 C 5,6 C 5,0 C 71 % 1023,1 hPa 0,0 l/m 0 min 0 min 0 W/m 6,4 km/h (2 Bft) 97,87 %
24.03.2019 20:22 7,2 C 5,6 C 5,0 C 70 % 1023,1 hPa 0,0 l/m 0 min 0 min 0 W/m 6,4 km/h (2 Bft) 95,74 %
24.03.2019 20:24 7,2 C 5,6 C 5,0 C 70 % 1023,1 hPa 0,0 l/m 0 min 0 min 0 W/m 3,2 km/h (1 Bft) 95,74 %
24.03.2019 20:26 7,1 C 5,6 C 5,0 C 70 % 1023,1 hPa 0,0 l/m 0 min 0 min 0 W/m 9,7 km/h (2 Bft) 95,74 %
24.03.2019 20:28 7,1 C 5,6 C 5,0 C 70 % 1023,0 hPa 0,0 l/m 0 min 0 min 0 W/m 9,7 km/h (2 Bft) 95,65 %
24.03.2019 20:30 7,0 C 5,6 C 5,0 C 70 % 1023,0 hPa 0,0 l/m 0 min 0 min 0 W/m 6,4 km/h (2 Bft) 95,74 %
24.03.2019 20:32 6,9 C 5,6 C 5,0 C 70 % 1023,1 hPa 0,0 l/m 0 min 0 min 0 W/m 6,4 km/h (2 Bft) 100,00 %
24.03.2019 20:34 6,9 C 5,0 C 5,0 C 70 % 1023,1 hPa 0,0 l/m 0 min 0 min 0 W/m 6,4 km/h (2 Bft) 100,00 %
24.03.2019 20:36 6,8 C 5,0 C 5,0 C 71 % 1023,1 hPa 0,0 l/m 0 min 0 min 0 W/m 3,2 km/h (1 Bft) 98,31 %
24.03.2019 20:38 6,8 C 5,0 C 4,4 C 71 % 1023,0 hPa 0,0 l/m 0 min 0 min 0 W/m 3,2 km/h (1 Bft) 97,14 %
24.03.2019 20:40 6,8 C 5,0 C 4,4 C 71 % 1023,0 hPa 0,0 l/m 0 min 0 min 0 W/m 3,2 km/h (1 Bft) 97,83 %
24.03.2019 20:42 6,7 C 5,0 C 4,4 C 71 % 1023,1 hPa 0,0 l/m 0 min 0 min 0 W/m 3,2 km/h (1 Bft) 97,87 %
24.03.2019 20:44 6,7 C 5,0 C 4,4 C 71 % 1023,0 hPa 0,0 l/m 0 min 0 min 0 W/m 6,4 km/h (2 Bft) 93,62 %
24.03.2019 20:46 6,7 C 5,0 C 4,4 C 71 % 1023,0 hPa 0,0 l/m 0 min 0 min 0 W/m 3,2 km/h (1 Bft) 97,87 %
24.03.2019 20:48 6,6 C 5,0 C 4,4 C 71 % 1023,1 hPa 0,0 l/m 0 min 0 min 0 W/m 3,2 km/h (1 Bft) 97,87 %
24.03.2019 20:50 6,6 C 5,0 C 4,4 C 71 % 1023,0 hPa 0,0 l/m 0 min 0 min 0 W/m 6,4 km/h (2 Bft) 97,87 %
24.03.2019 20:52 6,5 C 5,0 C 3,9 C 71 % 1023,1 hPa 0,0 l/m 0 min 0 min 0 W/m 3,2 km/h (1 Bft) 97,83 %
24.03.2019 20:54 6,4 C 4,4 C 3,9 C 71 % 1023,1 hPa 0,0 l/m 0 min 0 min 0 W/m 3,2 km/h (1 Bft) 95,74 %
24.03.2019 20:56 6,4 C 4,4 C 3,9 C 72 % 1023,1 hPa 0,0 l/m 0 min 0 min 0 W/m 6,4 km/h (2 Bft) 97,87 %
24.03.2019 20:58 6,4 C 4,4 C 3,9 C 72 % 1023,1 hPa 0,0 l/m 0 min 0 min 0 W/m 6,4 km/h (2 Bft) 91,49 %
24.03.2019 21:00 6,3 C 4,4 C 3,9 C 72 % 1023,1 hPa 0,0 l/m 0 min 0 min 0 W/m 6,4 km/h (2 Bft) 97,87 %
24.03.2019 21:02 6,3 C 4,4 C 3,9 C 72 % 1023,1 hPa 0,0 l/m 0 min 0 min 0 W/m 6,4 km/h (2 Bft) 95,74 %
24.03.2019 21:04 6,2 C 4,4 C 3,9 C 72 % 1023,1 hPa 0,0 l/m 0 min 0 min 0 W/m 6,4 km/h (2 Bft) 97,83 %
24.03.2019 21:06 6,2 C 4,4 C 3,9 C 73 % 1023,1 hPa 0,0 l/m 0 min 0 min 0 W/m 9,7 km/h (2 Bft) 98,31 %
24.03.2019 21:08 6,1 C 4,4 C 3,9 C 73 % 1023,1 hPa 0,0 l/m 0 min 0 min 0 W/m 3,2 km/h (1 Bft) 100,00 %
24.03.2019 21:10 6,1 C 4,4 C 3,9 C 73 % 1023,1 hPa 0,0 l/m 0 min 0 min 0 W/m 6,4 km/h (2 Bft) 100,00 %
24.03.2019 21:12 6,0 C 4,4 C 3,9 C 74 % 1023,1 hPa 0,0 l/m 0 min 0 min 0 W/m 6,4 km/h (2 Bft) 100,00 %
24.03.2019 21:14 6,0 C 4,4 C 3,9 C 74 % 1023,1 hPa 0,0 l/m 0 min 0 min 0 W/m 6,4 km/h (2 Bft) 100,00 %
24.03.2019 21:16 5,9 C 4,4 C 4,4 C 74 % 1023,2 hPa 0,0 l/m 0 min 0 min 0 W/m 6,4 km/h (2 Bft) 100,00 %
24.03.2019 21:18 5,9 C 4,4 C 4,4 C 74 % 1023,2 hPa 0,0 l/m 0 min 0 min 0 W/m 6,4 km/h (2 Bft) 100,00 %
24.03.2019 21:20 5,8 C 4,4 C 4,4 C 75 % 1023,2 hPa 0,0 l/m 0 min 0 min 0 W/m 6,4 km/h (2 Bft) 100,00 %
24.03.2019 21:22 5,8 C 4,4 C 4,4 C 75 % 1023,2 hPa 0,0 l/m 0 min 0 min 0 W/m 6,4 km/h (2 Bft) 100,00 %
24.03.2019 21:24 5,8 C 4,4 C 4,4 C 75 % 1023,2 hPa 0,0 l/m 0 min 0 min 0 W/m 9,7 km/h (2 Bft) 100,00 %
24.03.2019 21:26 5,7 C 4,4 C 4,4 C 75 % 1023,1 hPa 0,0 l/m 0 min 0 min 0 W/m 6,4 km/h (2 Bft) 100,00 %
24.03.2019 21:28 5,7 C 4,4 C 4,4 C 75 % 1023,1 hPa 0,0 l/m 0 min 0 min 0 W/m 9,7 km/h (2 Bft) 100,00 %
24.03.2019 21:30 5,7 C 4,4 C 4,4 C 76 % 1023,1 hPa 0,0 l/m 0 min 0 min 0 W/m 6,4 km/h (2 Bft) 100,00 %
24.03.2019 21:32 5,7 C 4,4 C 4,4 C 76 % 1023,1 hPa 0,0 l/m 0 min 0 min 0 W/m 9,7 km/h (2 Bft) 100,00 %
24.03.2019 21:34 5,7 C 4,4 C 4,4 C 76 % 1023,1 hPa 0,0 l/m 0 min 0 min 0 W/m 12,9 km/h (3 Bft) 100,00 %
24.03.2019 21:36 5,6 C 4,4 C 4,4 C 76 % 1023,0 hPa 0,0 l/m 0 min 0 min 0 W/m 9,7 km/h (2 Bft) 100,00 %
24.03.2019 21:38 5,6 C 4,4 C 4,4 C 76 % 1023,1 hPa 0,0 l/m 0 min 0 min 0 W/m 9,7 km/h (2 Bft) 100,00 %
24.03.2019 21:40 5,6 C 4,4 C 4,4 C 76 % 1023,1 hPa 0,0 l/m 0 min 0 min 0 W/m 12,9 km/h (3 Bft) 100,00 %
24.03.2019 21:42 5,6 C 4,4 C 4,4 C 77 % 1023,1 hPa 0,0 l/m 0 min 0 min 0 W/m 9,7 km/h (2 Bft) 100,00 %
24.03.2019 21:44 5,6 C 4,4 C 4,4 C 77 % 1023,1 hPa 0,0 l/m 0 min 0 min 0 W/m 9,7 km/h (2 Bft) 100,00 %
24.03.2019 21:46 5,6 C 4,4 C 4,4 C 77 % 1023,1 hPa 0,0 l/m 0 min 0 min 0 W/m 12,9 km/h (3 Bft) 100,00 %
24.03.2019 21:48 5,5 C 4,4 C 4,4 C 77 % 1023,1 hPa 0,0 l/m 0 min 0 min 0 W/m 12,9 km/h (3 Bft) 100,00 %
24.03.2019 21:50 5,5 C 4,4 C 4,4 C 77 % 1023,1 hPa 0,0 l/m 0 min 0 min 0 W/m 9,7 km/h (2 Bft) 100,00 %
24.03.2019 21:52 5,5 C 4,4 C 4,4 C 77 % 1023,1 hPa 0,0 l/m 0 min 0 min 0 W/m 9,7 km/h (2 Bft) 100,00 %
24.03.2019 21:54 5,5 C 4,4 C 4,4 C 78 % 1023,1 hPa 0,0 l/m 0 min 0 min 0 W/m 6,4 km/h (2 Bft) 100,00 %
24.03.2019 21:56 5,5 C 4,4 C 4,4 C 78 % 1023,1 hPa 0,0 l/m 0 min 0 min 0 W/m 6,4 km/h (2 Bft) 100,00 %
24.03.2019 21:58 5,5 C 4,4 C 4,4 C 78 % 1023,0 hPa 0,0 l/m 0 min 0 min 0 W/m 6,4 km/h (2 Bft) 100,00 %
24.03.2019 22:00 5,4 C 4,4 C 3,9 C 78 % 1023,0 hPa 0,0 l/m 0 min 0 min 0 W/m 9,7 km/h (2 Bft) 100,00 %
24.03.2019 22:02 5,4 C 4,4 C 3,9 C 78 % 1023,0 hPa 0,0 l/m 0 min 0 min 0 W/m 6,4 km/h (2 Bft) 100,00 %
24.03.2019 22:04 5,4 C 4,4 C 3,9 C 78 % 1023,0 hPa 0,0 l/m 0 min 0 min 0 W/m 3,2 km/h (1 Bft) 97,87 %
24.03.2019 22:06 5,4 C 4,4 C 3,9 C 78 % 1023,0 hPa 0,0 l/m 0 min 0 min 0 W/m 3,2 km/h (1 Bft) 100,00 %
24.03.2019 22:08 5,4 C 3,9 C 3,9 C 78 % 1023,0 hPa 0,0 l/m 0 min 0 min 0 W/m 3,2 km/h (1 Bft) 97,87 %
24.03.2019 22:10 5,4 C 3,9 C 3,9 C 78 % 1022,9 hPa 0,0 l/m 0 min 0 min 0 W/m 6,4 km/h (2 Bft) 94,29 %
24.03.2019 22:12 5,4 C 3,9 C 3,9 C 78 % 1022,9 hPa 0,0 l/m 0 min 0 min 0 W/m 3,2 km/h (1 Bft) 100,00 %
24.03.2019 22:14 5,3 C 3,9 C 3,9 C 78 % 1023,0 hPa 0,0 l/m 0 min 0 min 0 W/m 6,4 km/h (2 Bft) 100,00 %
24.03.2019 22:16 5,3 C 3,9 C 3,3 C 78 % 1022,9 hPa 0,0 l/m 0 min 0 min 0 W/m 3,2 km/h (1 Bft) 97,87 %
24.03.2019 22:18 5,3 C 3,9 C 3,3 C 78 % 1022,9 hPa 0,0 l/m 0 min 0 min 0 W/m 3,2 km/h (1 Bft) 95,74 %
24.03.2019 22:20 5,3 C 3,9 C 3,3 C 79 % 1022,9 hPa 0,0 l/m 0 min 0 min 0 W/m 0,0 km/h (0 Bft) 95,74 %
24.03.2019 22:22 5,2 C 3,3 C 3,3 C 79 % 1022,7 hPa 0,0 l/m 0 min 0 min 0 W/m 0,0 km/h (0 Bft) 97,87 %
24.03.2019 22:24 5,2 C 3,3 C 2,8 C 79 % 1022,8 hPa 0,0 l/m 0 min 0 min 0 W/m 0,0 km/h (0 Bft) 97,87 %
24.03.2019 22:26 5,2 C 3,3 C 2,8 C 79 % 1022,7 hPa 0,0 l/m 0 min 0 min 0 W/m 0,0 km/h (0 Bft) 97,83 %
24.03.2019 22:28 5,2 C 3,3 C 2,8 C 79 % 1022,7 hPa 0,0 l/m 0 min 0 min 0 W/m 3,2 km/h (1 Bft) 97,87 %
24.03.2019 22:30 5,2 C 3,3 C 2,8 C 79 % 1022,7 hPa 0,0 l/m 0 min 0 min 0 W/m 3,2 km/h (1 Bft) 97,87 %
24.03.2019 22:32 5,1 C 3,3 C 2,8 C 79 % 1022,7 hPa 0,0 l/m 0 min 0 min 0 W/m 0,0 km/h (0 Bft) 95,74 %
24.03.2019 22:34 5,1 C 3,3 C 2,8 C 79 % 1022,7 hPa 0,0 l/m 0 min 0 min 0 W/m 0,0 km/h (0 Bft) 97,87 %
24.03.2019 22:36 5,1 C 3,3 C 2,8 C 79 % 1022,7 hPa 0,0 l/m 0 min 0 min 0 W/m 3,2 km/h (1 Bft) 96,55 %
24.03.2019 22:38 5,0 C 3,3 C 2,8 C 79 % 1022,7 hPa 0,0 l/m 0 min 0 min 0 W/m 3,2 km/h (1 Bft) 100,00 %
24.03.2019 22:40 5,0 C 3,3 C 2,2 C 79 % 1022,7 hPa 0,0 l/m 0 min 0 min 0 W/m 3,2 km/h (1 Bft) 95,74 %
24.03.2019 22:42 4,9 C 3,3 C 2,2 C 79 % 1022,6 hPa 0,0 l/m 0 min 0 min 0 W/m 3,2 km/h (1 Bft) 95,74 %
24.03.2019 22:44 4,9 C 3,3 C 2,2 C 79 % 1022,6 hPa 0,0 l/m 0 min 0 min 0 W/m 0,0 km/h (0 Bft) 95,74 %
24.03.2019 22:46 4,9 C 2,8 C 2,2 C 79 % 1022,6 hPa 0,0 l/m 0 min 0 min 0 W/m 0,0 km/h (0 Bft) 97,87 %
24.03.2019 22:48 4,8 C 3,3 C 2,2 C 79 % 1022,6 hPa 0,0 l/m 0 min 0 min 0 W/m 0,0 km/h (0 Bft) 97,83 %
24.03.2019 22:50 4,8 C 3,3 C 2,2 C 79 % 1022,6 hPa 0,0 l/m 0 min 0 min 0 W/m 3,2 km/h (1 Bft) 100,00 %
24.03.2019 22:52 4,8 C 3,3 C 2,2 C 79 % 1022,6 hPa 0,0 l/m 0 min 0 min 0 W/m 0,0 km/h (0 Bft) 100,00 %
24.03.2019 22:54 4,7 C 3,3 C 2,2 C 79 % 1022,5 hPa 0,0 l/m 0 min 0 min 0 W/m 0,0 km/h (0 Bft) 100,00 %
24.03.2019 22:56 4,7 C 3,3 C 2,2 C 79 % 1022,5 hPa 0,0 l/m 0 min 0 min 0 W/m 0,0 km/h (0 Bft) 100,00 %
24.03.2019 22:58 4,7 C 3,3 C 2,2 C 79 % 1022,5 hPa 0,0 l/m 0 min 0 min 0 W/m 0,0 km/h (0 Bft) 100,00 %
24.03.2019 23:00 4,7 C 3,3 C 2,2 C 79 % 1022,5 hPa 0,0 l/m 0 min 0 min 0 W/m 0,0 km/h (0 Bft) 100,00 %
24.03.2019 23:02 4,6 C 3,3 C 2,2 C 80 % 1022,5 hPa 0,0 l/m 0 min 0 min 0 W/m 0,0 km/h (0 Bft) 100,00 %
24.03.2019 23:04 4,6 C 3,3 C 2,2 C 80 % 1022,5 hPa 0,0 l/m 0 min 0 min 0 W/m 0,0 km/h (0 Bft) 100,00 %
24.03.2019 23:06 4,5 C 3,3 C 2,2 C 80 % 1022,5 hPa 0,0 l/m 0 min 0 min 0 W/m 0,0 km/h (0 Bft) 100,00 %
24.03.2019 23:08 4,5 C 3,3 C 2,8 C 80 % 1022,4 hPa 0,0 l/m 0 min 0 min 0 W/m 6,4 km/h (2 Bft) 100,00 %
24.03.2019 23:10 4,4 C 3,3 C 2,8 C 80 % 1022,4 hPa 0,0 l/m 0 min 0 min 0 W/m 3,2 km/h (1 Bft) 100,00 %
24.03.2019 23:12 4,4 C 3,3 C 2,8 C 80 % 1022,4 hPa 0,0 l/m 0 min 0 min 0 W/m 3,2 km/h (1 Bft) 97,83 %
24.03.2019 23:14 4,4 C 3,3 C 2,8 C 81 % 1022,5 hPa 0,0 l/m 0 min 0 min 0 W/m 3,2 km/h (1 Bft) 97,87 %
24.03.2019 23:16 4,4 C 3,3 C 2,8 C 81 % 1022,5 hPa 0,0 l/m 0 min 0 min 0 W/m 3,2 km/h (1 Bft) 95,74 %
24.03.2019 23:18 4,3 C 3,3 C 2,8 C 81 % 1022,4 hPa 0,0 l/m 0 min 0 min 0 W/m 3,2 km/h (1 Bft) 97,87 %
24.03.2019 23:20 4,3 C 3,3 C 2,8 C 81 % 1022,5 hPa 0,0 l/m 0 min 0 min 0 W/m 6,4 km/h (2 Bft) 97,87 %
24.03.2019 23:22 4,3 C 3,3 C 2,8 C 81 % 1022,4 hPa 0,0 l/m 0 min 0 min 0 W/m 6,4 km/h (2 Bft) 97,87 %
24.03.2019 23:24 4,3 C 3,3 C 2,8 C 81 % 1022,4 hPa 0,0 l/m 0 min 0 min 0 W/m 3,2 km/h (1 Bft) 97,83 %
24.03.2019 23:26 4,3 C 3,3 C 2,8 C 81 % 1022,4 hPa 0,0 l/m 0 min 0 min 0 W/m 3,2 km/h (1 Bft) 95,74 %
24.03.2019 23:28 4,2 C 3,3 C 2,8 C 81 % 1022,3 hPa 0,0 l/m 0 min 0 min 0 W/m 3,2 km/h (1 Bft) 97,87 %
24.03.2019 23:30 4,2 C 3,3 C 2,8 C 82 % 1022,3 hPa 0,0 l/m 0 min 0 min 0 W/m 3,2 km/h (1 Bft) 97,87 %
24.03.2019 23:32 4,2 C 3,3 C 2,8 C 82 % 1022,3 hPa 0,0 l/m 0 min 0 min 0 W/m 6,4 km/h (2 Bft) 97,87 %
24.03.2019 23:34 4,2 C 3,3 C 2,8 C 82 % 1022,2 hPa 0,0 l/m 0 min 0 min 0 W/m 3,2 km/h (1 Bft) 95,74 %
24.03.2019 23:36 4,2 C 3,3 C 2,2 C 82 % 1022,2 hPa 0,0 l/m 0 min 0 min 0 W/m 0,0 km/h (0 Bft) 98,28 %
24.03.2019 23:38 4,2 C 3,3 C 2,2 C 82 % 1022,2 hPa 0,0 l/m 0 min 0 min 0 W/m 3,2 km/h (1 Bft) 97,14 %
24.03.2019 23:40 4,2 C 2,8 C 2,2 C 82 % 1022,2 hPa 0,0 l/m 0 min 0 min 0 W/m 6,4 km/h (2 Bft) 95,74 %
24.03.2019 23:42 4,1 C 2,8 C 2,2 C 82 % 1022,1 hPa 0,0 l/m 0 min 0 min 0 W/m 3,2 km/h (1 Bft) 97,87 %
24.03.2019 23:44 4,1 C 2,8 C 2,2 C 82 % 1022,2 hPa 0,0 l/m 0 min 0 min 0 W/m 3,2 km/h (1 Bft) 97,87 %
24.03.2019 23:46 4,1 C 3,3 C 2,2 C 82 % 1022,1 hPa 0,0 l/m 0 min 0 min 0 W/m 3,2 km/h (1 Bft) 97,87 %
24.03.2019 23:48 4,1 C 3,3 C 2,2 C 82 % 1022,1 hPa 0,0 l/m 0 min 0 min 0 W/m 3,2 km/h (1 Bft) 97,83 %
24.03.2019 23:50 4,1 C 3,3 C 2,2 C 82 % 1022,1 hPa 0,0 l/m 0 min 0 min 0 W/m 3,2 km/h (1 Bft) 93,62 %
24.03.2019 23:52 4,1 C 3,3 C 2,2 C 83 % 1022,0 hPa 0,0 l/m 0 min 0 min 0 W/m 3,2 km/h (1 Bft) 93,62 %
24.03.2019 23:54 4,1 C 3,3 C 2,8 C 83 % 1022,0 hPa 0,0 l/m 0 min 0 min 0 W/m 3,2 km/h (1 Bft) 91,49 %
24.03.2019 23:56 4,1 C 3,3 C 2,2 C 83 % 1021,9 hPa 0,0 l/m 0 min 0 min 0 W/m 0,0 km/h (0 Bft) 93,62 %
24.03.2019 23:58 4,1 C 3,3 C 2,2 C 83 % 1021,9 hPa 0,0 l/m 0 min 0 min 0 W/m 0,0 km/h (0 Bft) 93,48 %
_ Min-Zeit 23:42 22:46 22:40 15:56 23:56 - - - - 04:22 07:14
Minimum _ 4,1 C 2,8 C 2,2 C 45 % 1021,9 hPa - - - - 0,0 km/h (0 Bft) 89,36 %
_ Max-Zeit 12:36 12:32 13:04 00:00 00:00 00:00 12:08 00:00 12:24 14:00 00:42
Maximum _ 14,2 C 23,3 C 20,6 C 90 % 1027,6 hPa 0,0 l/m 4 min 0 min 760 W/m 35,4 km/h
NW (5 Bft)
100,00 %
Durchschnitt _ 9,2 C 10,5 C 8,7 C 74 % 1024,8 hPa #0,0 l/m #8:04 h #0 min. 362 W/m 10,2 km/h (2 Bft) 97,28 %
© 2019 W. Hausmann